Time,TemperatureF,DewpointF,PressureIn,WindDirection,WindDirectionDegrees,WindSpeedMPH,WindSpeedGustMPH,Humidity,HourlyPrecipIn,Conditions,Clouds,dailyrainin,SoftwareType,DateUTC
2013-11-27 00:00:00,19.2,1.8,29.56,NNW,343,14.1,14.1,46,0.00,,CLR,0.00,VWS V14.01,2013-11-27 06:00:00,
2013-11-27 00:01:00,19.2,1.8,29.56,NNW,340,8.7,10.1,46,0.00,,CLR,0.00,VWS V14.01,2013-11-27 06:01:00,
2013-11-27 00:02:00,19.2,1.8,29.56,NNW,340,8.7,10.1,46,0.00,,CLR,0.00,VWS V14.01,2013-11-27 06:02:00,
2013-11-27 00:04:00,19.2,1.8,29.56,NW,323,12.3,12.3,46,0.00,,CLR,0.00,VWS V14.01,2013-11-27 06:04:00,
2013-11-27 00:06:00,19.2,1.8,29.56,NNW,337,12.8,12.8,46,0.00,,CLR,0.00,VWS V14.01,2013-11-27 06:06:00,
2013-11-27 00:07:00,19.2,1.8,29.56,NNW,344,13.2,13.2,46,0.00,,CLR,0.00,VWS V14.01,2013-11-27 06:07:00,
2013-11-27 00:08:00,19.2,1.8,29.56,NNW,327,8.7,11.0,46,0.00,,CLR,0.00,VWS V14.01,2013-11-27 06:08:00,
2013-11-27 00:09:00,19.2,1.8,29.56,NNW,334,9.6,11.0,46,0.00,,CLR,0.00,VWS V14.01,2013-11-27 06:09:00,
2013-11-27 00:12:00,19.2,1.8,29.56,NNW,332,11.0,11.0,46,0.00,,CLR,0.00,VWS V14.01,2013-11-27 06:12:00,
2013-11-27 00:13:00,19.0,1.7,29.56,NNW,345,12.8,12.8,46,0.00,,CLR,0.00,VWS V14.01,2013-11-27 06:13:00,
2013-11-27 00:14:00,19.0,1.7,29.56,NNW,332,13.2,13.2,46,0.00,,CLR,0.00,VWS V14.01,2013-11-27 06:14:00,
2013-11-27 00:17:00,19.0,1.7,29.56,NNW,346,13.2,13.2,46,0.00,,CLR,0.00,VWS V14.01,2013-11-27 06:17:00,
2013-11-27 00:18:00,19.0,1.7,29.56,NNW,342,11.0,15.0,46,0.00,,CLR,0.00,VWS V14.01,2013-11-27 06:18:00,
2013-11-27 00:19:00,19.0,1.7,29.56,NNW,345,8.1,12.3,46,0.00,,CLR,0.00,VWS V14.01,2013-11-27 06:19:00,
2013-11-27 00:20:00,19.0,1.7,29.56,NNW,344,10.1,11.0,46,0.00,,CLR,0.00,VWS V14.01,2013-11-27 06:20:00,
2013-11-27 00:23:00,18.9,1.5,29.56,NNW,334,10.5,10.5,46,0.00,,CLR,0.00,VWS V14.01,2013-11-27 06:23:00,
2013-11-27 00:24:00,18.9,1.5,29.56,NNW,344,12.8,13.2,46,0.00,,CLR,0.00,VWS V14.01,2013-11-27 06:24:00,
2013-11-27 00:25:00,18.9,1.5,29.56,NNW,348,8.3,12.8,46,0.00,,CLR,0.00,VWS V14.01,2013-11-27 06:25:00,
2013-11-27 00:28:00,18.7,1.4,29.56,North,353,8.7,12.8,46,0.00,,CLR,0.00,VWS V14.01,2013-11-27 06:28:00,
2013-11-27 00:29:00,18.7,1.4,29.56,North,357,11.0,12.3,46,0.00,,CLR,0.00,VWS V14.01,2013-11-27 06:29:00,
2013-11-27 00:30:00,18.7,1.4,29.56,North,350,8.3,12.3,46,0.00,,CLR,0.00,VWS V14.01,2013-11-27 06:30:00,
2013-11-27 00:33:00,18.5,1.2,29.56,NNW,342,13.2,13.2,46,0.00,,CLR,0.00,VWS V14.01,2013-11-27 06:33:00,
2013-11-27 00:34:00,18.5,1.2,29.56,NNW,348,10.1,12.8,46,0.00,,CLR,0.00,VWS V14.01,2013-11-27 06:34:00,
2013-11-27 00:35:00,18.5,1.2,29.56,North,353,10.1,12.3,46,0.00,,CLR,0.00,VWS V14.01,2013-11-27 06:35:00,
2013-11-27 00:36:00,18.5,1.2,29.56,North,353,10.1,11.4,46,0.00,,CLR,0.00,VWS V14.01,2013-11-27 06:36:00,
2013-11-27 00:40:00,18.3,1.0,29.59,NNW,341,8.1,13.2,46,0.00,,CLR,0.00,VWS V14.01,2013-11-27 06:40:00,
2013-11-27 00:41:00,18.3,1.0,29.59,North,357,12.8,13.2,46,0.00,,CLR,0.00,VWS V14.01,2013-11-27 06:41:00,
2013-11-27 00:45:00,18.3,1.0,29.59,NNW,344,8.3,10.5,46,0.00,,CLR,0.00,VWS V14.01,2013-11-27 06:45:00,
2013-11-27 00:46:00,18.3,1.0,29.59,NNW,342,11.0,12.8,46,0.00,,CLR,0.00,VWS V14.01,2013-11-27 06:46:00,
2013-11-27 00:47:00,18.3,1.0,29.59,NNW,342,10.5,11.0,46,0.00,,CLR,0.00,VWS V14.01,2013-11-27 06:47:00,
2013-11-27 00:48:00,18.3,1.0,29.59,NNW,348,10.1,10.1,46,0.00,,CLR,0.00,VWS V14.01,2013-11-27 06:48:00,
2013-11-27 00:50:00,18.3,1.0,29.59,NNW,344,8.7,10.1,46,0.00,,CLR,0.00,VWS V14.01,2013-11-27 06:50:00,
2013-11-27 00:51:00,18.3,1.0,29.59,North,353,10.1,11.0,46,0.00,,CLR,0.00,VWS V14.01,2013-11-27 06:51:00,
2013-11-27 00:52:00,18.3,1.0,29.59,NNW,337,11.0,11.0,46,0.00,,CLR,0.00,VWS V14.01,2013-11-27 06:52:00,
2013-11-27 00:53:00,18.3,1.0,29.59,North,357,10.5,11.4,46,0.00,,CLR,0.00,VWS V14.01,2013-11-27 06:53:00,
2013-11-27 00:54:00,18.3,1.0,29.59,NNW,344,7.6,8.3,46,0.00,,CLR,0.00,VWS V14.01,2013-11-27 06:54:00,
2013-11-27 00:56:00,18.1,0.9,29.56,North,0,11.0,11.0,46,0.00,,CLR,0.00,VWS V14.01,2013-11-27 06:56:00,
2013-11-27 00:57:00,18.1,0.9,29.56,NNW,340,7.6,11.0,46,0.00,,CLR,0.00,VWS V14.01,2013-11-27 06:57:00,
2013-11-27 00:58:00,18.1,0.9,29.56,North,8,12.8,12.8,46,0.00,,CLR,0.00,VWS V14.01,2013-11-27 06:58:00,
2013-11-27 00:59:00,18.1,0.9,29.56,NNW,334,10.1,12.8,46,0.00,,CLR,0.00,VWS V14.01,2013-11-27 06:59:00,
2013-11-27 01:02:00,18.1,0.9,29.56,NNW,345,10.1,10.1,46,0.00,,CLR,0.00,VWS V14.01,2013-11-27 07:02:00,
2013-11-27 01:04:00,18.0,0.7,29.56,NNW,343,7.6,9.2,46,0.00,,CLR,0.00,VWS V14.01,2013-11-27 07:04:00,
2013-11-27 01:05:00,18.0,0.7,29.56,NNW,341,7.6,8.3,46,0.00,,CLR,0.00,VWS V14.01,2013-11-27 07:05:00,
2013-11-27 01:07:00,17.8,0.5,29.56,NNW,339,7.6,8.1,46,0.00,,CLR,0.00,VWS V14.01,2013-11-27 07:07:00,
2013-11-27 01:09:00,17.8,0.5,29.56,NNW,337,10.5,11.0,46,0.00,,CLR,0.00,VWS V14.01,2013-11-27 07:09:00,
2013-11-27 01:12:00,18.0,0.7,29.56,North,353,10.1,10.1,46,0.00,,CLR,0.00,VWS V14.01,2013-11-27 07:12:00,
2013-11-27 01:13:00,18.0,0.7,29.56,North,357,8.1,10.1,46,0.00,,CLR,0.00,VWS V14.01,2013-11-27 07:13:00,
2013-11-27 01:15:00,17.6,0.3,29.56,NNW,346,8.3,10.5,46,0.00,,CLR,0.00,VWS V14.01,2013-11-27 07:15:00,
2013-11-27 01:17:00,17.4,0.2,29.56,North,353,8.3,8.3,46,0.00,,CLR,0.00,VWS V14.01,2013-11-27 07:17:00,
2013-11-27 01:18:00,17.4,0.2,29.56,North,3,11.0,11.0,46,0.00,,CLR,0.00,VWS V14.01,2013-11-27 07:18:00,
2013-11-27 01:19:00,17.4,0.2,29.56,North,7,8.7,11.0,46,0.00,,CLR,0.00,VWS V14.01,2013-11-27 07:19:00,
2013-11-27 01:20:00,17.4,0.2,29.56,NNW,339,8.3,11.0,46,0.00,,CLR,0.00,VWS V14.01,2013-11-27 07:20:00,
2013-11-27 01:23:00,17.2,0.0,29.56,North,357,8.3,8.3,46,0.00,,CLR,0.00,VWS V14.01,2013-11-27 07:23:00,
2013-11-27 01:24:00,17.1,-0.1,29.56,North,0,9.6,10.5,46,0.00,,CLR,0.00,VWS V14.01,2013-11-27 07:24:00,
2013-11-27 01:25:00,17.1,-0.1,29.56,North,357,11.0,11.0,46,0.00,,CLR,0.00,VWS V14.01,2013-11-27 07:25:00,
2013-11-27 01:28:00,17.4,0.2,29.56,NNW,338,9.2,9.2,46,0.00,,CLR,0.00,VWS V14.01,2013-11-27 07:28:00,
2013-11-27 01:29:00,17.2,0.0,29.56,North,0,8.3,8.3,46,0.00,,CLR,0.00,VWS V14.01,2013-11-27 07:29:00,
2013-11-27 01:31:00,17.1,-0.1,29.56,NNW,338,7.6,8.3,46,0.00,,CLR,0.00,VWS V14.01,2013-11-27 07:31:00,
2013-11-27 01:32:00,17.1,-0.1,29.56,NNW,338,8.7,8.7,46,0.00,,CLR,0.00,VWS V14.01,2013-11-27 07:32:00,
2013-11-27 01:33:00,17.1,-0.1,29.56,North,353,8.3,8.7,46,0.00,,CLR,0.00,VWS V14.01,2013-11-27 07:33:00,
2013-11-27 01:34:00,17.1,-0.1,29.56,NNW,334,10.1,12.3,46,0.00,,CLR,0.00,VWS V14.01,2013-11-27 07:34:00,
2013-11-27 01:35:00,17.1,-0.1,29.56,NNW,340,13.2,13.2,46,0.00,,CLR,0.00,VWS V14.01,2013-11-27 07:35:00,
2013-11-27 01:36:00,17.4,0.2,29.56,North,357,9.6,9.6,46,0.00,,CLR,0.00,VWS V14.01,2013-11-27 07:36:00,
2013-11-27 01:39:00,17.1,-0.1,29.56,North,353,10.5,11.9,46,0.00,,CLR,0.00,VWS V14.01,2013-11-27 07:39:00,
2013-11-27 01:40:00,17.1,-0.1,29.56,North,0,10.1,10.5,46,0.00,,CLR,0.00,VWS V14.01,2013-11-27 07:40:00,
2013-11-27 01:41:00,17.1,-0.1,29.56,North,353,8.3,11.0,46,0.00,,CLR,0.00,VWS V14.01,2013-11-27 07:41:00,
2013-11-27 01:44:00,17.2,0.0,29.56,North,353,8.3,10.5,46,0.00,,CLR,0.00,VWS V14.01,2013-11-27 07:44:00,
2013-11-27 01:45:00,17.2,0.0,29.56,NNW,345,7.6,8.7,46,0.00,,CLR,0.00,VWS V14.01,2013-11-27 07:45:00,
2013-11-27 01:46:00,17.1,-0.1,29.56,NNW,342,9.2,9.6,46,0.00,,CLR,0.00,VWS V14.01,2013-11-27 07:46:00,
2013-11-27 01:47:00,17.1,-0.1,29.56,NNW,336,8.7,9.2,46,0.00,,CLR,0.00,VWS V14.01,2013-11-27 07:47:00,
2013-11-27 01:49:00,17.1,-0.1,29.56,NNW,334,8.7,8.7,46,0.00,,CLR,0.00,VWS V14.01,2013-11-27 07:49:00,
2013-11-27 01:50:00,16.9,-0.3,29.56,North,353,7.6,7.6,46,0.00,,CLR,0.00,VWS V14.01,2013-11-27 07:50:00,
2013-11-27 01:52:00,16.9,-0.3,29.56,North,0,7.6,8.7,46,0.00,,CLR,0.00,VWS V14.01,2013-11-27 07:52:00,
2013-11-27 01:53:00,16.7,-0.5,29.56,NNW,344,7.6,8.7,46,0.00,,CLR,0.00,VWS V14.01,2013-11-27 07:53:00,
2013-11-27 01:55:00,16.9,-0.3,29.56,North,350,7.6,10.1,46,0.00,,CLR,0.00,VWS V14.01,2013-11-27 07:55:00,
2013-11-27 01:56:00,16.9,-0.3,29.56,North,349,7.6,10.1,46,0.00,,CLR,0.00,VWS V14.01,2013-11-27 07:56:00,
2013-11-27 01:57:00,16.7,-0.5,29.56,NNW,346,10.1,11.0,46,0.00,,CLR,0.00,VWS V14.01,2013-11-27 07:57:00,
2013-11-27 01:58:00,16.9,-0.3,29.56,NNW,343,8.7,10.1,46,0.00,,CLR,0.00,VWS V14.01,2013-11-27 07:58:00,
2013-11-27 01:59:00,16.9,-0.3,29.56,NNW,343,6.7,10.1,46,0.00,,CLR,0.00,VWS V14.01,2013-11-27 07:59:00,
2013-11-27 02:01:00,16.7,-0.5,29.56,NNW,340,8.3,10.5,46,0.00,,CLR,0.00,VWS V14.01,2013-11-27 08:01:00,
2013-11-27 02:03:00,16.7,-0.5,29.56,NNW,339,10.5,12.3,46,0.00,,CLR,0.00,VWS V14.01,2013-11-27 08:03:00,
2013-11-27 02:04:00,16.7,-0.5,29.56,NNW,340,8.7,8.7,46,0.00,,CLR,0.00,VWS V14.01,2013-11-27 08:04:00,
2013-11-27 02:06:00,16.7,-0.5,29.56,NNW,342,8.7,8.7,46,0.00,,CLR,0.00,VWS V14.01,2013-11-27 08:06:00,
2013-11-27 02:10:00,16.5,-0.6,29.56,NNW,339,10.1,10.1,46,0.00,,CLR,0.00,VWS V14.01,2013-11-27 08:10:00,
2013-11-27 02:11:00,16.5,-0.6,29.56,NNW,338,8.3,8.3,46,0.00,,CLR,0.00,VWS V14.01,2013-11-27 08:11:00,
2013-11-27 02:14:00,16.5,-0.6,29.56,NNW,344,8.1,11.4,46,0.00,,CLR,0.00,VWS V14.01,2013-11-27 08:14:00,
2013-11-27 02:15:00,16.5,-0.6,29.56,NNW,337,10.5,11.4,46,0.00,,CLR,0.00,VWS V14.01,2013-11-27 08:15:00,
2013-11-27 02:17:00,16.5,-0.6,29.56,NNW,337,10.1,10.1,46,0.00,,CLR,0.00,VWS V14.01,2013-11-27 08:17:00,
2013-11-27 02:18:00,16.5,-0.6,29.56,NNW,334,10.5,10.5,46,0.00,,CLR,0.00,VWS V14.01,2013-11-27 08:18:00,
2013-11-27 02:20:00,16.5,-0.6,29.56,NNW,338,10.1,10.1,46,0.00,,CLR,0.00,VWS V14.01,2013-11-27 08:20:00,
2013-11-27 02:21:00,16.5,-0.6,29.56,NNW,345,8.1,10.1,46,0.00,,CLR,0.00,VWS V14.01,2013-11-27 08:21:00,
2013-11-27 02:22:00,16.5,-0.6,29.56,NNW,338,8.7,10.1,46,0.00,,CLR,0.00,VWS V14.01,2013-11-27 08:22:00,
2013-11-27 02:23:00,16.5,-0.6,29.56,NNW,338,8.7,10.1,46,0.00,,CLR,0.00,VWS V14.01,2013-11-27 08:23:00,
2013-11-27 02:26:00,16.3,-0.8,29.59,NNW,333,8.7,9.6,46,0.00,,CLR,0.00,VWS V14.01,2013-11-27 08:26:00,
2013-11-27 02:28:00,16.3,-0.8,29.59,NNW,337,8.1,8.3,46,0.00,,CLR,0.00,VWS V14.01,2013-11-27 08:28:00,
2013-11-27 02:29:00,16.3,-0.8,29.59,NNW,342,8.1,8.3,46,0.00,,CLR,0.00,VWS V14.01,2013-11-27 08:29:00,
2013-11-27 02:31:00,16.2,-1.0,29.59,NNW,336,7.6,8.3,46,0.00,,CLR,0.00,VWS V14.01,2013-11-27 08:31:00,
2013-11-27 02:33:00,16.3,-0.8,29.59,North,0,8.3,8.3,46,0.00,,CLR,0.00,VWS V14.01,2013-11-27 08:33:00,
2013-11-27 02:34:00,16.2,-1.0,29.59,North,353,8.1,8.1,46,0.00,,CLR,0.00,VWS V14.01,2013-11-27 08:34:00,
2013-11-27 02:36:00,16.2,-1.0,29.59,NNW,340,8.7,10.5,46,0.00,,CLR,0.00,VWS V14.01,2013-11-27 08:36:00,
2013-11-27 02:37:00,16.2,-1.0,29.59,NNW,332,10.1,10.5,46,0.00,,CLR,0.00,VWS V14.01,2013-11-27 08:37:00,
2013-11-27 02:38:00,16.2,-1.0,29.59,NNW,345,7.6,7.6,46,0.00,,CLR,0.00,VWS V14.01,2013-11-27 08:38:00,
2013-11-27 02:39:00,16.2,-1.0,29.59,NNW,338,6.3,8.3,46,0.00,,CLR,0.00,VWS V14.01,2013-11-27 08:39:00,
2013-11-27 02:41:00,16.2,-1.0,29.59,North,350,8.1,8.7,46,0.00,,CLR,0.00,VWS V14.01,2013-11-27 08:41:00,
2013-11-27 02:42:00,16.2,-1.0,29.59,NNW,348,8.1,10.1,46,0.00,,CLR,0.00,VWS V14.01,2013-11-27 08:42:00,
2013-11-27 02:43:00,16.2,-1.0,29.59,NNW,338,7.6,7.6,46,0.00,,CLR,0.00,VWS V14.01,2013-11-27 08:43:00,
2013-11-27 02:44:00,16.2,-1.0,29.59,NNW,340,10.1,10.1,46,0.00,,CLR,0.00,VWS V14.01,2013-11-27 08:44:00,
2013-11-27 02:47:00,16.2,-1.0,29.59,NNW,331,8.1,8.7,46,0.00,,CLR,0.00,VWS V14.01,2013-11-27 08:47:00,
2013-11-27 02:48:00,16.0,-1.1,29.59,NNW,336,8.3,9.2,46,0.00,,CLR,0.00,VWS V14.01,2013-11-27 08:48:00,
2013-11-27 02:49:00,16.0,-1.1,29.59,NNW,343,6.3,10.5,46,0.00,,CLR,0.00,VWS V14.01,2013-11-27 08:49:00,
2013-11-27 02:50:00,16.0,-1.1,29.59,NNW,342,7.6,10.5,46,0.00,,CLR,0.00,VWS V14.01,2013-11-27 08:50:00,
2013-11-27 02:52:00,16.0,-1.1,29.59,NNW,344,7.6,7.6,46,0.00,,CLR,0.00,VWS V14.01,2013-11-27 08:52:00,
2013-11-27 02:53:00,16.0,-1.1,29.59,North,353,8.3,8.7,46,0.00,,CLR,0.00,VWS V14.01,2013-11-27 08:53:00,
2013-11-27 02:54:00,15.8,-0.4,29.59,North,350,8.7,10.1,48,0.00,,CLR,0.00,VWS V14.01,2013-11-27 08:54:00,
2013-11-27 02:55:00,15.8,-0.4,29.59,North,350,8.3,8.7,48,0.00,,CLR,0.00,VWS V14.01,2013-11-27 08:55:00,
2013-11-27 02:56:00,15.8,-0.4,29.59,NNW,341,8.1,11.0,48,0.00,,CLR,0.00,VWS V14.01,2013-11-27 08:56:00,
2013-11-27 02:58:00,15.8,-0.4,29.59,NNW,341,8.7,8.7,48,0.00,,CLR,0.00,VWS V14.01,2013-11-27 08:58:00,
2013-11-27 02:59:00,15.8,-0.4,29.59,NNW,336,8.3,8.7,48,0.00,,CLR,0.00,VWS V14.01,2013-11-27 08:59:00,
2013-11-27 03:00:00,15.8,-0.4,29.59,NNW,334,8.3,8.3,48,0.00,,CLR,0.00,VWS V14.01,2013-11-27 09:00:00,
2013-11-27 03:01:00,15.8,-0.4,29.59,NNW,335,7.6,7.6,48,0.00,,CLR,0.00,VWS V14.01,2013-11-27 09:01:00,
2013-11-27 03:02:00,15.8,-0.4,29.59,North,353,6.7,7.6,48,0.00,,CLR,0.00,VWS V14.01,2013-11-27 09:02:00,
2013-11-27 03:05:00,15.8,-0.4,29.59,NNW,339,5.8,7.6,48,0.00,,CLR,0.00,VWS V14.01,2013-11-27 09:05:00,
2013-11-27 03:06:00,15.6,-0.6,29.59,NNW,341,7.6,7.6,48,0.00,,CLR,0.00,VWS V14.01,2013-11-27 09:06:00,
2013-11-27 03:07:00,15.6,-0.6,29.59,NNW,341,6.3,7.6,48,0.00,,CLR,0.00,VWS V14.01,2013-11-27 09:07:00,
2013-11-27 03:10:00,15.4,-0.7,29.56,NNW,338,5.8,5.8,48,0.00,,CLR,0.00,VWS V14.01,2013-11-27 09:10:00,
2013-11-27 03:11:00,15.3,-0.9,29.56,NNW,337,5.8,7.2,48,0.00,,CLR,0.00,VWS V14.01,2013-11-27 09:11:00,
2013-11-27 03:12:00,15.3,-0.9,29.56,NNW,336,6.3,7.6,48,0.00,,CLR,0.00,VWS V14.01,2013-11-27 09:12:00,
2013-11-27 03:13:00,15.3,-0.9,29.56,NNW,341,8.1,8.3,48,0.00,,CLR,0.00,VWS V14.01,2013-11-27 09:13:00,
2013-11-27 03:15:00,15.3,-0.9,29.56,NNW,330,9.2,9.2,48,0.00,,CLR,0.00,VWS V14.01,2013-11-27 09:15:00,
2013-11-27 03:17:00,15.3,-0.9,29.56,North,350,11.0,11.0,48,0.00,,CLR,0.00,VWS V14.01,2013-11-27 09:17:00,
2013-11-27 03:18:00,15.3,-0.9,29.56,NNW,340,8.7,11.0,48,0.00,,CLR,0.00,VWS V14.01,2013-11-27 09:18:00,
2013-11-27 03:19:00,15.3,-0.9,29.56,NNW,344,7.6,8.1,48,0.00,,CLR,0.00,VWS V14.01,2013-11-27 09:19:00,
2013-11-27 03:20:00,15.3,-0.9,29.56,NNW,341,7.6,7.6,48,0.00,,CLR,0.00,VWS V14.01,2013-11-27 09:20:00,
2013-11-27 03:21:00,15.3,-0.9,29.56,North,353,5.8,6.3,48,0.00,,CLR,0.00,VWS V14.01,2013-11-27 09:21:00,
2013-11-27 03:23:00,15.3,-0.9,29.56,NNW,333,8.1,8.1,48,0.00,,CLR,0.00,VWS V14.01,2013-11-27 09:23:00,
2013-11-27 03:24:00,15.3,-0.9,29.56,NNW,336,6.3,6.3,48,0.00,,CLR,0.00,VWS V14.01,2013-11-27 09:24:00,
2013-11-27 03:25:00,15.3,-0.9,29.56,NNW,334,7.6,7.6,48,0.00,,CLR,0.00,VWS V14.01,2013-11-27 09:25:00,
2013-11-27 03:26:00,15.1,-1.1,29.56,NNW,334,7.6,7.6,48,0.00,,CLR,0.00,VWS V14.01,2013-11-27 09:26:00,
2013-11-27 03:28:00,15.1,-1.1,29.56,NNW,342,5.8,5.8,48,0.00,,CLR,0.00,VWS V14.01,2013-11-27 09:28:00,
2013-11-27 03:29:00,14.9,-1.2,29.56,NNW,341,5.4,6.3,48,0.00,,CLR,0.00,VWS V14.01,2013-11-27 09:29:00,
2013-11-27 03:30:00,14.9,-1.2,29.56,NNW,344,7.6,8.3,48,0.00,,CLR,0.00,VWS V14.01,2013-11-27 09:30:00,
2013-11-27 03:31:00,14.9,-1.2,29.56,North,353,8.3,8.3,48,0.00,,CLR,0.00,VWS V14.01,2013-11-27 09:31:00,
2013-11-27 03:32:00,14.9,-1.2,29.56,North,353,7.6,8.7,48,0.00,,CLR,0.00,VWS V14.01,2013-11-27 09:32:00,
2013-11-27 03:33:00,14.9,-1.2,29.56,NNW,344,7.6,7.6,48,0.00,,CLR,0.00,VWS V14.01,2013-11-27 09:33:00,
2013-11-27 03:35:00,14.9,-1.2,29.56,NNW,343,5.4,6.3,48,0.00,,CLR,0.00,VWS V14.01,2013-11-27 09:35:00,
2013-11-27 03:36:00,14.9,-1.2,29.56,NNW,343,4.9,5.8,48,0.00,,CLR,0.00,VWS V14.01,2013-11-27 09:36:00,
2013-11-27 03:37:00,14.9,-1.2,29.56,NNW,343,5.4,5.4,48,0.00,,CLR,0.00,VWS V14.01,2013-11-27 09:37:00,
2013-11-27 03:38:00,14.5,-1.6,29.56,NNW,339,7.6,7.6,48,0.00,,CLR,0.00,VWS V14.01,2013-11-27 09:38:00,
2013-11-27 03:40:00,14.5,-1.6,29.56,NNW,337,6.3,7.2,48,0.00,,CLR,0.00,VWS V14.01,2013-11-27 09:40:00,
2013-11-27 03:41:00,14.5,-1.6,29.56,NNW,337,7.6,7.6,48,0.00,,CLR,0.00,VWS V14.01,2013-11-27 09:41:00,
2013-11-27 03:42:00,14.5,-1.6,29.56,NNW,328,8.7,8.7,48,0.00,,CLR,0.00,VWS V14.01,2013-11-27 09:42:00,
2013-11-27 03:43:00,14.7,-1.4,29.56,NNW,345,7.6,7.6,48,0.00,,CLR,0.00,VWS V14.01,2013-11-27 09:43:00,
2013-11-27 03:44:00,14.7,-1.4,29.56,NNW,334,8.3,8.3,48,0.00,,CLR,0.00,VWS V14.01,2013-11-27 09:44:00,
2013-11-27 03:45:00,14.9,-1.2,29.56,NNW,332,8.1,8.3,48,0.00,,CLR,0.00,VWS V14.01,2013-11-27 09:45:00,
2013-11-27 03:46:00,14.9,-1.2,29.56,NNW,333,7.6,8.1,48,0.00,,CLR,0.00,VWS V14.01,2013-11-27 09:46:00,
2013-11-27 03:47:00,14.9,-1.2,29.56,NNW,334,6.3,6.3,48,0.00,,CLR,0.00,VWS V14.01,2013-11-27 09:47:00,
2013-11-27 03:48:00,14.7,-1.4,29.56,NNW,333,7.6,7.6,48,0.00,,CLR,0.00,VWS V14.01,2013-11-27 09:48:00,
2013-11-27 03:50:00,14.7,-1.4,29.56,NNW,334,5.8,6.7,48,0.00,,CLR,0.00,VWS V14.01,2013-11-27 09:50:00,
2013-11-27 03:52:00,14.7,-1.4,29.56,NNW,334,6.7,10.5,48,0.00,,CLR,0.00,VWS V14.01,2013-11-27 09:52:00,
2013-11-27 03:53:00,14.5,-1.6,29.56,NNW,338,6.3,8.1,48,0.00,,CLR,0.00,VWS V14.01,2013-11-27 09:53:00,
2013-11-27 03:55:00,14.5,-1.6,29.56,North,0,8.1,9.2,48,0.00,,CLR,0.00,VWS V14.01,2013-11-27 09:55:00,
2013-11-27 03:58:00,14.5,-1.6,29.56,NNW,342,5.8,7.6,48,0.00,,CLR,0.00,VWS V14.01,2013-11-27 09:58:00,
2013-11-27 03:59:00,14.5,-1.6,29.56,NW,325,10.5,10.5,48,0.00,,CLR,0.00,VWS V14.01,2013-11-27 09:59:00,
2013-11-27 04:01:00,14.7,-1.4,29.56,NNW,335,8.7,8.7,48,0.00,,CLR,0.00,VWS V14.01,2013-11-27 10:01:00,
2013-11-27 04:04:00,14.7,-1.4,29.56,NNW,343,5.8,7.6,48,0.00,,CLR,0.00,VWS V14.01,2013-11-27 10:04:00,
2013-11-27 04:05:00,14.5,-1.6,29.56,NNW,346,8.1,8.1,48,0.00,,CLR,0.00,VWS V14.01,2013-11-27 10:05:00,
2013-11-27 04:06:00,14.5,-1.6,29.56,NNW,341,6.3,8.7,48,0.00,,CLR,0.00,VWS V14.01,2013-11-27 10:06:00,
2013-11-27 04:07:00,14.5,-1.6,29.56,NNW,335,7.6,8.1,48,0.00,,CLR,0.00,VWS V14.01,2013-11-27 10:07:00,
2013-11-27 04:09:00,14.5,-1.6,29.53,North,349,5.4,6.3,48,0.00,,CLR,0.00,VWS V14.01,2013-11-27 10:09:00,
2013-11-27 04:10:00,14.5,-1.6,29.53,NNW,337,7.6,7.6,48,0.00,,CLR,0.00,VWS V14.01,2013-11-27 10:10:00,
2013-11-27 04:11:00,14.5,-1.6,29.53,NNW,335,8.1,8.1,48,0.00,,CLR,0.00,VWS V14.01,2013-11-27 10:11:00,
2013-11-27 04:12:00,14.5,-1.6,29.53,NNW,346,6.3,8.3,48,0.00,,CLR,0.00,VWS V14.01,2013-11-27 10:12:00,
2013-11-27 04:14:00,14.5,-1.6,29.53,NNW,343,6.7,6.7,48,0.00,,CLR,0.00,VWS V14.01,2013-11-27 10:14:00,
2013-11-27 04:16:00,14.4,-1.7,29.53,NNW,338,6.3,6.7,48,0.00,,CLR,0.00,VWS V14.01,2013-11-27 10:16:00,
2013-11-27 04:17:00,14.4,-1.7,29.53,NNW,335,6.7,7.6,48,0.00,,CLR,0.00,VWS V14.01,2013-11-27 10:17:00,
2013-11-27 04:20:00,14.4,-1.7,29.53,NNW,333,5.4,6.3,48,0.00,,CLR,0.00,VWS V14.01,2013-11-27 10:20:00,
2013-11-27 04:21:00,14.2,-1.9,29.53,NNW,333,5.4,8.1,48,0.00,,CLR,0.00,VWS V14.01,2013-11-27 10:21:00,
2013-11-27 04:23:00,14.2,-1.9,29.53,NNW,329,5.8,7.6,48,0.00,,CLR,0.00,VWS V14.01,2013-11-27 10:23:00,
2013-11-27 04:24:00,14.2,-1.9,29.53,NNW,329,5.8,6.3,48,0.00,,CLR,0.00,VWS V14.01,2013-11-27 10:24:00,
2013-11-27 04:25:00,14.2,-1.9,29.56,NNW,329,5.8,7.6,48,0.00,,CLR,0.00,VWS V14.01,2013-11-27 10:25:00,
2013-11-27 04:28:00,14.2,-1.9,29.56,NNW,331,6.3,6.3,48,0.00,,CLR,0.00,VWS V14.01,2013-11-27 10:28:00,
2013-11-27 04:29:00,14.2,-1.9,29.56,NNW,334,8.7,8.7,48,0.00,,CLR,0.00,VWS V14.01,2013-11-27 10:29:00,
2013-11-27 04:30:00,14.0,-2.1,29.56,NNW,333,8.1,8.1,48,0.00,,CLR,0.00,VWS V14.01,2013-11-27 10:30:00,
2013-11-27 04:31:00,14.0,-2.1,29.56,NNW,333,5.4,8.1,48,0.00,,CLR,0.00,VWS V14.01,2013-11-27 10:31:00,
2013-11-27 04:33:00,14.0,-2.1,29.56,NNW,333,6.3,7.6,48,0.00,,CLR,0.00,VWS V14.01,2013-11-27 10:33:00,
2013-11-27 04:35:00,14.0,-2.1,29.56,NNW,334,7.6,7.6,48,0.00,,CLR,0.00,VWS V14.01,2013-11-27 10:35:00,
2013-11-27 04:36:00,14.0,-2.1,29.56,NNW,331,5.4,7.6,48,0.00,,CLR,0.00,VWS V14.01,2013-11-27 10:36:00,
2013-11-27 04:38:00,14.0,0.4,29.56,NNW,331,7.6,8.3,54,0.00,,CLR,0.00,VWS V14.01,2013-11-27 10:38:00,
2013-11-27 04:39:00,14.0,0.4,29.56,NNW,331,6.3,8.3,54,0.00,,CLR,0.00,VWS V14.01,2013-11-27 10:39:00,
2013-11-27 04:41:00,14.0,0.4,29.56,NNW,336,7.6,8.7,54,0.00,,CLR,0.00,VWS V14.01,2013-11-27 10:41:00,
2013-11-27 04:42:00,14.0,0.4,29.56,NNW,335,6.3,7.6,54,0.00,,CLR,0.00,VWS V14.01,2013-11-27 10:42:00,
2013-11-27 04:43:00,14.0,0.4,29.56,NNW,335,8.1,8.1,54,0.00,,CLR,0.00,VWS V14.01,2013-11-27 10:43:00,
2013-11-27 04:45:00,14.0,0.4,29.56,NNW,332,8.1,8.3,54,0.00,,CLR,0.00,VWS V14.01,2013-11-27 10:45:00,
2013-11-27 04:46:00,14.2,-0.2,29.56,NNW,333,8.3,8.3,52,0.00,,CLR,0.00,VWS V14.01,2013-11-27 10:46:00,
2013-11-27 04:47:00,14.2,-0.2,29.56,NNW,332,8.3,8.3,52,0.00,,CLR,0.00,VWS V14.01,2013-11-27 10:47:00,
2013-11-27 04:48:00,14.0,0.4,29.56,NNW,331,6.3,7.6,54,0.00,,CLR,0.00,VWS V14.01,2013-11-27 10:48:00,
2013-11-27 04:51:00,14.0,0.4,29.56,NNW,333,7.2,7.6,54,0.00,,CLR,0.00,VWS V14.01,2013-11-27 10:51:00,
2013-11-27 04:52:00,14.0,0.4,29.56,NNW,333,6.3,7.2,54,0.00,,CLR,0.00,VWS V14.01,2013-11-27 10:52:00,
2013-11-27 04:53:00,13.8,0.3,29.56,NNW,329,8.7,8.7,54,0.00,,CLR,0.00,VWS V14.01,2013-11-27 10:53:00,
2013-11-27 04:54:00,13.8,0.3,29.56,NNW,334,7.6,8.1,54,0.00,,CLR,0.00,VWS V14.01,2013-11-27 10:54:00,
2013-11-27 04:56:00,14.0,0.4,29.56,NNW,338,7.2,7.6,54,0.00,,CLR,0.00,VWS V14.01,2013-11-27 10:56:00,
2013-11-27 04:57:00,13.8,0.3,29.56,NNW,335,7.6,8.1,54,0.00,,CLR,0.00,VWS V14.01,2013-11-27 10:57:00,
2013-11-27 04:58:00,13.8,0.3,29.56,NW,325,8.1,8.7,54,0.00,,CLR,0.00,VWS V14.01,2013-11-27 10:58:00,
2013-11-27 04:59:00,14.0,0.4,29.56,NNW,327,8.1,8.1,54,0.00,,CLR,0.00,VWS V14.01,2013-11-27 10:59:00,
2013-11-27 05:02:00,14.0,0.4,29.56,NNW,334,7.6,8.1,54,0.00,,CLR,0.00,VWS V14.01,2013-11-27 11:02:00,
2013-11-27 05:03:00,14.0,0.4,29.56,NNW,334,6.3,6.3,54,0.00,,CLR,0.00,VWS V14.01,2013-11-27 11:03:00,
2013-11-27 05:04:00,14.0,0.4,29.56,NNW,348,8.3,8.3,54,0.00,,CLR,0.00,VWS V14.01,2013-11-27 11:04:00,
2013-11-27 05:05:00,14.0,-2.1,29.56,NNW,340,7.2,7.2,48,0.00,,CLR,0.00,VWS V14.01,2013-11-27 11:05:00,
2013-11-27 05:07:00,13.8,-2.2,29.56,NNW,329,8.7,8.7,48,0.00,,CLR,0.00,VWS V14.01,2013-11-27 11:07:00,
2013-11-27 05:09:00,13.8,0.3,29.56,NNW,330,5.8,7.6,54,0.00,,CLR,0.00,VWS V14.01,2013-11-27 11:09:00,
2013-11-27 05:10:00,13.8,0.3,29.56,NNW,330,7.6,7.6,54,0.00,,CLR,0.00,VWS V14.01,2013-11-27 11:10:00,
2013-11-27 05:12:00,13.8,0.3,29.56,NNW,331,8.1,8.1,54,0.00,,CLR,0.00,VWS V14.01,2013-11-27 11:12:00,
2013-11-27 05:15:00,13.6,0.1,29.56,NNW,336,6.3,8.3,54,0.00,,CLR,0.00,VWS V14.01,2013-11-27 11:15:00,
2013-11-27 05:16:00,13.8,0.3,29.56,NNW,336,5.8,8.3,54,0.00,,CLR,0.00,VWS V14.01,2013-11-27 11:16:00,
2013-11-27 05:17:00,13.8,0.3,29.56,NNW,337,6.3,7.6,54,0.00,,CLR,0.00,VWS V14.01,2013-11-27 11:17:00,
2013-11-27 05:20:00,13.6,0.1,29.56,NNW,336,6.3,7.6,54,0.00,,CLR,0.00,VWS V14.01,2013-11-27 11:20:00,
2013-11-27 05:21:00,13.6,0.1,29.56,NNW,335,6.3,7.2,54,0.00,,CLR,0.00,VWS V14.01,2013-11-27 11:21:00,
2013-11-27 05:23:00,13.6,0.1,29.56,North,353,8.1,8.7,54,0.00,,CLR,0.00,VWS V14.01,2013-11-27 11:23:00,
2013-11-27 05:25:00,13.6,0.1,29.56,NNW,341,5.4,5.8,54,0.00,,CLR,0.00,VWS V14.01,2013-11-27 11:25:00,
2013-11-27 05:26:00,13.6,0.1,29.56,NNW,341,5.8,7.6,54,0.00,,CLR,0.00,VWS V14.01,2013-11-27 11:26:00,
2013-11-27 05:27:00,13.6,0.1,29.56,NNW,341,6.7,7.6,54,0.00,,CLR,0.00,VWS V14.01,2013-11-27 11:27:00,
2013-11-27 05:28:00,13.6,0.1,29.56,North,353,6.3,7.6,54,0.00,,CLR,0.00,VWS V14.01,2013-11-27 11:28:00,
2013-11-27 05:31:00,13.6,0.1,29.56,NNW,346,5.8,6.3,54,0.00,,CLR,0.00,VWS V14.01,2013-11-27 11:31:00,
2013-11-27 05:32:00,13.6,0.1,29.56,NNW,341,8.1,8.3,54,0.00,,CLR,0.00,VWS V14.01,2013-11-27 11:32:00,
2013-11-27 05:33:00,13.6,0.1,29.56,North,0,9.2,9.2,54,0.00,,CLR,0.00,VWS V14.01,2013-11-27 11:33:00,
2013-11-27 05:34:00,13.6,0.1,29.56,NNW,335,7.6,9.2,54,0.00,,CLR,0.00,VWS V14.01,2013-11-27 11:34:00,
2013-11-27 05:36:00,13.6,0.1,29.56,North,353,8.7,8.7,54,0.00,,CLR,0.00,VWS V14.01,2013-11-27 11:36:00,
2013-11-27 05:38:00,13.6,0.1,29.56,NNW,344,6.3,6.3,54,0.00,,CLR,0.00,VWS V14.01,2013-11-27 11:38:00,
2013-11-27 05:39:00,13.6,0.1,29.56,NNW,340,7.6,8.1,54,0.00,,CLR,0.00,VWS V14.01,2013-11-27 11:39:00,
2013-11-27 05:43:00,13.6,0.1,29.56,NNW,342,8.3,8.3,54,0.00,,CLR,0.00,VWS V14.01,2013-11-27 11:43:00,
2013-11-27 05:44:00,13.6,0.1,29.56,NNW,340,5.8,8.3,54,0.00,,CLR,0.00,VWS V14.01,2013-11-27 11:44:00,
2013-11-27 05:45:00,13.6,0.1,29.56,NNW,335,6.3,8.3,54,0.00,,CLR,0.00,VWS V14.01,2013-11-27 11:45:00,
2013-11-27 05:48:00,13.6,0.1,29.56,NNW,339,5.8,5.8,54,0.00,,CLR,0.00,VWS V14.01,2013-11-27 11:48:00,
2013-11-27 05:49:00,13.6,0.1,29.56,NNW,339,6.3,7.2,54,0.00,,CLR,0.00,VWS V14.01,2013-11-27 11:49:00,
2013-11-27 05:50:00,13.5,-0.1,29.56,NNW,345,7.6,7.6,54,0.00,,CLR,0.00,VWS V14.01,2013-11-27 11:50:00,
2013-11-27 05:51:00,13.5,-0.1,29.56,NNW,341,6.7,8.3,54,0.00,,CLR,0.00,VWS V14.01,2013-11-27 11:51:00,
2013-11-27 05:54:00,13.5,-0.1,29.56,NNW,343,5.4,6.3,54,0.00,,CLR,0.00,VWS V14.01,2013-11-27 11:54:00,
2013-11-27 05:55:00,13.5,-0.1,29.56,NNW,345,7.6,8.3,54,0.00,,CLR,0.00,VWS V14.01,2013-11-27 11:55:00,
2013-11-27 05:56:00,13.3,-0.2,29.56,NNW,345,5.8,8.3,54,0.00,,CLR,0.00,VWS V14.01,2013-11-27 11:56:00,
2013-11-27 05:57:00,13.3,-0.2,29.56,NNW,343,8.1,8.1,54,0.00,,CLR,0.00,VWS V14.01,2013-11-27 11:57:00,
2013-11-27 06:00:00,13.3,-0.2,29.56,NNW,342,5.8,5.8,54,0.00,,CLR,0.00,VWS V14.01,2013-11-27 12:00:00,
2013-11-27 06:01:00,13.3,-0.2,29.56,NNW,337,7.6,8.3,54,0.00,,CLR,0.00,VWS V14.01,2013-11-27 12:01:00,
2013-11-27 06:02:00,13.3,-0.2,29.56,NNW,333,8.1,8.3,54,0.00,,CLR,0.00,VWS V14.01,2013-11-27 12:02:00,
2013-11-27 06:06:00,13.1,-0.4,29.56,NNW,342,7.6,7.6,54,0.00,,CLR,0.00,VWS V14.01,2013-11-27 12:06:00,
2013-11-27 06:07:00,13.1,-0.4,29.56,NNW,342,6.3,7.6,54,0.00,,CLR,0.00,VWS V14.01,2013-11-27 12:07:00,
2013-11-27 06:08:00,13.1,-0.4,29.56,NNW,343,5.8,6.3,54,0.00,,CLR,0.00,VWS V14.01,2013-11-27 12:08:00,
2013-11-27 06:09:00,12.9,-0.6,29.56,NNW,336,6.3,6.7,54,0.00,,CLR,0.00,VWS V14.01,2013-11-27 12:09:00,
2013-11-27 06:11:00,13.1,-0.4,29.56,NNW,337,5.8,7.6,54,0.00,,CLR,0.00,VWS V14.01,2013-11-27 12:11:00,
2013-11-27 06:12:00,12.9,-0.6,29.56,NNW,339,6.7,7.6,54,0.00,,CLR,0.00,VWS V14.01,2013-11-27 12:12:00,
2013-11-27 06:13:00,12.9,-0.6,29.56,NNW,339,6.3,7.6,54,0.00,,CLR,0.00,VWS V14.01,2013-11-27 12:13:00,
2013-11-27 06:14:00,12.9,-0.6,29.56,NNW,340,5.8,6.7,54,0.00,,CLR,0.00,VWS V14.01,2013-11-27 12:14:00,
2013-11-27 06:16:00,12.9,-0.6,29.56,NNW,341,7.6,8.1,54,0.00,,CLR,0.00,VWS V14.01,2013-11-27 12:16:00,
2013-11-27 06:18:00,12.9,-0.6,29.56,NNW,337,5.4,8.1,54,0.00,,CLR,0.00,VWS V14.01,2013-11-27 12:18:00,
2013-11-27 06:19:00,12.9,-0.6,29.56,NNW,339,7.6,8.1,54,0.00,,CLR,0.00,VWS V14.01,2013-11-27 12:19:00,
2013-11-27 06:22:00,12.9,-0.6,29.56,NNW,340,6.3,7.6,54,0.00,,CLR,0.00,VWS V14.01,2013-11-27 12:22:00,
2013-11-27 06:23:00,12.9,-0.6,29.56,NNW,341,6.3,6.3,54,0.00,,CLR,0.00,VWS V14.01,2013-11-27 12:23:00,
2013-11-27 06:24:00,12.7,-0.8,29.56,NNW,341,7.6,7.6,54,0.00,,CLR,0.00,VWS V14.01,2013-11-27 12:24:00,
2013-11-27 06:25:00,12.7,-0.8,29.59,North,353,5.8,8.1,54,0.00,,CLR,0.00,VWS V14.01,2013-11-27 12:25:00,
2013-11-27 06:27:00,12.7,-0.8,29.59,NNW,345,6.7,7.2,54,0.00,,CLR,0.00,VWS V14.01,2013-11-27 12:27:00,
2013-11-27 06:28:00,12.7,-0.8,29.59,North,349,6.3,7.6,54,0.00,,CLR,0.00,VWS V14.01,2013-11-27 12:28:00,
2013-11-27 06:29:00,12.7,-0.8,29.59,North,350,5.8,8.3,54,0.00,,CLR,0.00,VWS V14.01,2013-11-27 12:29:00,
2013-11-27 06:30:00,12.7,-0.8,29.59,NNW,342,7.6,8.3,54,0.00,,CLR,0.00,VWS V14.01,2013-11-27 12:30:00,
2013-11-27 06:31:00,12.7,-0.8,29.59,NNW,341,6.3,6.3,54,0.00,,CLR,0.00,VWS V14.01,2013-11-27 12:31:00,
2013-11-27 06:32:00,12.7,-0.8,29.59,NNW,346,6.7,8.1,54,0.00,,CLR,0.00,VWS V14.01,2013-11-27 12:32:00,
2013-11-27 06:33:00,12.9,-0.6,29.59,NNW,339,6.3,6.3,54,0.00,,CLR,0.00,VWS V14.01,2013-11-27 12:33:00,
2013-11-27 06:34:00,12.7,-0.8,29.59,NNW,339,6.3,6.3,54,0.00,,CLR,0.00,VWS V14.01,2013-11-27 12:34:00,
2013-11-27 06:35:00,12.7,-0.8,29.59,NNW,339,6.3,6.3,54,0.00,,CLR,0.00,VWS V14.01,2013-11-27 12:35:00,
2013-11-27 06:36:00,12.7,-0.8,29.59,NNW,332,8.1,8.3,54,0.00,,CLR,0.00,VWS V14.01,2013-11-27 12:36:00,
2013-11-27 06:38:00,12.7,-0.8,29.59,NNW,332,6.7,7.6,54,0.00,,CLR,0.00,VWS V14.01,2013-11-27 12:38:00,
2013-11-27 06:39:00,12.7,-0.8,29.59,NNW,337,7.6,7.6,54,0.00,,CLR,0.00,VWS V14.01,2013-11-27 12:39:00,
2013-11-27 06:41:00,12.9,-0.6,29.59,NNW,340,5.8,6.3,54,0.00,,CLR,0.00,VWS V14.01,2013-11-27 12:41:00,
2013-11-27 06:42:00,12.7,-0.8,29.59,North,350,5.8,8.1,54,0.00,,CLR,0.00,VWS V14.01,2013-11-27 12:42:00,
2013-11-27 06:43:00,12.7,-0.8,29.59,NNW,346,7.6,7.6,54,0.00,,CLR,0.00,VWS V14.01,2013-11-27 12:43:00,
2013-11-27 06:44:00,12.7,-0.8,29.59,North,353,7.6,7.6,54,0.00,,CLR,0.00,VWS V14.01,2013-11-27 12:44:00,
2013-11-27 06:46:00,12.7,-0.8,29.59,North,0,8.1,8.1,54,0.00,,CLR,0.00,VWS V14.01,2013-11-27 12:46:00,
2013-11-27 06:47:00,12.7,-0.8,29.59,North,350,8.1,8.1,54,0.00,,CLR,0.00,VWS V14.01,2013-11-27 12:47:00,
2013-11-27 06:49:00,12.7,-0.8,29.59,NNW,333,7.2,8.1,54,0.00,,CLR,0.00,VWS V14.01,2013-11-27 12:49:00,
2013-11-27 06:51:00,12.7,-0.8,29.59,North,353,8.1,8.1,54,0.00,,CLR,0.00,VWS V14.01,2013-11-27 12:51:00,
2013-11-27 06:52:00,12.7,-0.8,29.59,NNW,338,5.8,8.3,54,0.00,,CLR,0.00,VWS V14.01,2013-11-27 12:52:00,
2013-11-27 06:53:00,12.7,-0.8,29.59,NNW,337,7.6,7.6,54,0.00,,CLR,0.00,VWS V14.01,2013-11-27 12:53:00,
2013-11-27 06:54:00,12.7,-0.8,29.59,NNW,343,7.6,7.6,54,0.00,,CLR,0.00,VWS V14.01,2013-11-27 12:54:00,
2013-11-27 06:55:00,12.7,-0.8,29.59,NNW,342,6.3,7.6,54,0.00,,CLR,0.00,VWS V14.01,2013-11-27 12:55:00,
2013-11-27 06:57:00,12.7,-0.8,29.59,NNW,337,6.7,8.1,54,0.00,,CLR,0.00,VWS V14.01,2013-11-27 12:57:00,
2013-11-27 06:58:00,12.7,-0.8,29.59,NNW,339,8.3,8.3,54,0.00,,CLR,0.00,VWS V14.01,2013-11-27 12:58:00,
2013-11-27 07:01:00,12.7,-0.8,29.59,NNW,335,8.1,8.3,54,0.00,,CLR,0.00,VWS V14.01,2013-11-27 13:01:00,
2013-11-27 07:02:00,12.9,-0.6,29.59,NNW,341,7.6,10.1,54,0.00,,CLR,0.00,VWS V14.01,2013-11-27 13:02:00,
2013-11-27 07:03:00,12.9,-0.6,29.59,NNW,344,7.6,8.7,54,0.00,,CLR,0.00,VWS V14.01,2013-11-27 13:03:00,
2013-11-27 07:04:00,12.9,-0.6,29.59,NNW,343,8.1,8.1,54,0.00,,CLR,0.00,VWS V14.01,2013-11-27 13:04:00,
2013-11-27 07:05:00,12.9,-0.6,29.59,NNW,346,5.8,8.1,54,0.00,,CLR,0.00,VWS V14.01,2013-11-27 13:05:00,
2013-11-27 07:06:00,12.9,-0.6,29.59,North,353,7.6,8.3,54,0.00,,CLR,0.00,VWS V14.01,2013-11-27 13:06:00,
2013-11-27 07:07:00,12.9,-0.6,29.59,North,349,8.3,8.3,54,0.00,,CLR,0.00,VWS V14.01,2013-11-27 13:07:00,
2013-11-27 07:08:00,12.9,-0.6,29.59,NNW,342,8.1,8.3,54,0.00,,CLR,0.00,VWS V14.01,2013-11-27 13:08:00,
2013-11-27 07:09:00,12.9,-0.6,29.59,NNW,342,6.3,8.1,54,0.00,,CLR,0.00,VWS V14.01,2013-11-27 13:09:00,
2013-11-27 07:10:00,12.9,-0.6,29.62,NNW,335,7.6,7.6,54,0.00,,CLR,0.00,VWS V14.01,2013-11-27 13:10:00,
2013-11-27 07:11:00,12.9,-0.6,29.62,North,353,8.3,8.3,54,0.00,,CLR,0.00,VWS V14.01,2013-11-27 13:11:00,
2013-11-27 07:12:00,12.9,-0.6,29.62,North,353,6.3,7.6,54,0.00,,CLR,0.00,VWS V14.01,2013-11-27 13:12:00,
2013-11-27 07:13:00,12.9,-0.6,29.62,North,350,6.7,8.1,54,0.00,,CLR,0.00,VWS V14.01,2013-11-27 13:13:00,
2013-11-27 07:15:00,12.9,-0.6,29.62,North,353,6.7,6.7,54,0.00,,CLR,0.00,VWS V14.01,2013-11-27 13:15:00,
2013-11-27 07:16:00,12.9,-0.6,29.62,NNW,340,6.3,6.3,54,0.00,,CLR,0.00,VWS V14.01,2013-11-27 13:16:00,
2013-11-27 07:18:00,12.9,-0.6,29.62,North,353,5.4,6.3,54,0.00,,CLR,0.00,VWS V14.01,2013-11-27 13:18:00,
2013-11-27 07:19:00,12.9,-0.6,29.62,NNW,346,6.3,6.3,54,0.00,,CLR,0.00,VWS V14.01,2013-11-27 13:19:00,
2013-11-27 07:20:00,12.9,-0.6,29.62,NNW,346,6.3,6.3,54,0.00,,CLR,0.00,VWS V14.01,2013-11-27 13:20:00,
2013-11-27 07:21:00,12.9,-0.6,29.62,NNW,345,7.6,8.7,54,0.00,,CLR,0.00,VWS V14.01,2013-11-27 13:21:00,
2013-11-27 07:22:00,12.9,-0.6,29.62,NNW,341,7.6,8.1,54,0.00,,CLR,0.00,VWS V14.01,2013-11-27 13:22:00,
2013-11-27 07:23:00,13.1,-0.4,29.62,North,0,8.1,8.7,54,0.00,,CLR,0.00,VWS V14.01,2013-11-27 13:23:00,
2013-11-27 07:24:00,13.1,-0.4,29.62,North,357,8.7,8.7,54,0.00,,CLR,0.00,VWS V14.01,2013-11-27 13:24:00,
2013-11-27 07:26:00,13.3,-0.2,29.62,NNW,341,5.8,6.7,54,0.00,,CLR,0.00,VWS V14.01,2013-11-27 13:26:00,
2013-11-27 07:27:00,13.3,-0.2,29.62,North,350,6.3,6.3,54,0.00,,CLR,0.00,VWS V14.01,2013-11-27 13:27:00,
2013-11-27 07:28:00,13.3,-0.2,29.62,NNW,341,7.6,7.6,54,0.00,,CLR,0.00,VWS V14.01,2013-11-27 13:28:00,
2013-11-27 07:29:00,13.3,-0.2,29.62,NNW,336,8.3,8.3,54,0.00,,CLR,0.00,VWS V14.01,2013-11-27 13:29:00,
2013-11-27 07:30:00,13.3,-0.2,29.62,North,353,7.6,8.3,54,0.00,,CLR,0.00,VWS V14.01,2013-11-27 13:30:00,
2013-11-27 07:32:00,13.5,-0.1,29.62,NNW,345,8.7,8.7,54,0.00,,CLR,0.00,VWS V14.01,2013-11-27 13:32:00,
2013-11-27 07:33:00,13.5,-0.1,29.62,North,357,8.1,8.1,54,0.00,,CLR,0.00,VWS V14.01,2013-11-27 13:33:00,
2013-11-27 07:34:00,13.5,-0.1,29.62,North,357,8.1,8.7,54,0.00,,CLR,0.00,VWS V14.01,2013-11-27 13:34:00,
2013-11-27 07:35:00,13.5,-0.1,29.62,NNW,345,8.1,8.7,54,0.00,,CLR,0.00,VWS V14.01,2013-11-27 13:35:00,
2013-11-27 07:38:00,13.6,0.1,29.62,NNW,339,5.8,8.7,54,0.00,,CLR,0.00,VWS V14.01,2013-11-27 13:38:00,
2013-11-27 07:39:00,13.6,0.1,29.62,NNW,344,6.3,6.3,54,0.00,,CLR,0.00,VWS V14.01,2013-11-27 13:39:00,
2013-11-27 07:40:00,13.6,0.1,29.62,NNW,345,7.6,7.6,54,0.00,,CLR,0.00,VWS V14.01,2013-11-27 13:40:00,
2013-11-27 07:44:00,13.8,0.3,29.62,NNW,344,7.6,8.7,54,0.00,,CLR,0.00,VWS V14.01,2013-11-27 13:44:00,
2013-11-27 07:46:00,13.8,0.3,29.62,NNW,330,6.3,8.7,54,0.00,,CLR,0.00,VWS V14.01,2013-11-27 13:46:00,
2013-11-27 07:49:00,14.0,0.4,29.62,NNW,342,6.7,8.1,54,0.00,,CLR,0.00,VWS V14.01,2013-11-27 13:49:00,
2013-11-27 07:50:00,14.2,-0.2,29.62,North,353,7.6,8.1,52,0.00,,CLR,0.00,VWS V14.01,2013-11-27 13:50:00,
2013-11-27 07:51:00,14.2,-0.2,29.62,NNW,336,7.2,8.7,52,0.00,,CLR,0.00,VWS V14.01,2013-11-27 13:51:00,
2013-11-27 07:55:00,14.2,-0.2,29.62,North,353,10.1,10.5,52,0.00,,CLR,0.00,VWS V14.01,2013-11-27 13:55:00,
2013-11-27 07:56:00,14.4,0.0,29.62,NNW,348,8.1,10.1,52,0.00,,CLR,0.00,VWS V14.01,2013-11-27 13:56:00,
2013-11-27 07:57:00,14.4,0.0,29.62,NNW,336,7.2,7.6,52,0.00,,CLR,0.00,VWS V14.01,2013-11-27 13:57:00,
2013-11-27 08:00:00,14.4,0.0,29.62,NNW,340,6.3,8.1,52,0.00,,CLR,0.00,VWS V14.01,2013-11-27 14:00:00,
2013-11-27 08:01:00,14.5,0.1,29.62,NNW,332,10.1,10.1,52,0.00,,CLR,0.00,VWS V14.01,2013-11-27 14:01:00,
2013-11-27 08:02:00,14.5,0.1,29.62,NNW,345,8.3,11.4,52,0.00,,CLR,0.00,VWS V14.01,2013-11-27 14:02:00,
2013-11-27 08:05:00,14.5,0.1,29.62,NNW,332,10.1,10.1,52,0.00,,CLR,0.00,VWS V14.01,2013-11-27 14:05:00,
2013-11-27 08:07:00,14.7,-1.4,29.62,NNW,344,7.6,11.0,48,0.00,,CLR,0.00,VWS V14.01,2013-11-27 14:07:00,
2013-11-27 08:08:00,14.9,-1.2,29.62,NNW,328,8.1,10.1,48,0.00,,CLR,0.00,VWS V14.01,2013-11-27 14:08:00,
2013-11-27 08:11:00,15.1,0.6,29.65,NNW,328,8.1,8.7,52,0.00,,CLR,0.00,VWS V14.01,2013-11-27 14:11:00,
2013-11-27 08:12:00,15.3,0.8,29.65,North,357,8.7,8.7,52,0.00,,CLR,0.00,VWS V14.01,2013-11-27 14:12:00,
2013-11-27 08:13:00,15.3,0.8,29.65,NNW,343,8.7,8.7,52,0.00,,CLR,0.00,VWS V14.01,2013-11-27 14:13:00,
2013-11-27 08:17:00,15.6,-0.6,29.65,NW,326,8.3,8.3,48,0.00,,CLR,0.00,VWS V14.01,2013-11-27 14:17:00,
2013-11-27 08:18:00,15.6,-0.6,29.65,North,0,8.1,8.7,48,0.00,,CLR,0.00,VWS V14.01,2013-11-27 14:18:00,
2013-11-27 08:19:00,15.6,-0.6,29.65,North,353,10.1,12.3,48,0.00,,CLR,0.00,VWS V14.01,2013-11-27 14:19:00,
2013-11-27 08:20:00,15.8,-0.4,29.65,NNW,335,10.5,10.5,48,0.00,,CLR,0.00,VWS V14.01,2013-11-27 14:20:00,
2013-11-27 08:23:00,16.0,-1.1,29.65,NNW,330,8.7,11.0,46,0.00,,CLR,0.00,VWS V14.01,2013-11-27 14:23:00,
2013-11-27 08:24:00,16.0,-1.1,29.65,North,0,13.2,13.2,46,0.00,,CLR,0.00,VWS V14.01,2013-11-27 14:24:00,
2013-11-27 08:26:00,16.2,-1.0,29.65,NNW,329,8.7,10.1,46,0.00,,CLR,0.00,VWS V14.01,2013-11-27 14:26:00,
2013-11-27 08:28:00,16.2,-1.0,29.65,North,353,10.1,11.0,46,0.00,,CLR,0.00,VWS V14.01,2013-11-27 14:28:00,
2013-11-27 08:29:00,16.2,-1.0,29.65,North,349,8.1,10.1,46,0.00,,CLR,0.00,VWS V14.01,2013-11-27 14:29:00,
2013-11-27 08:30:00,16.5,-0.6,29.65,NW,326,9.6,10.5,46,0.00,,CLR,0.00,VWS V14.01,2013-11-27 14:30:00,
2013-11-27 08:33:00,16.7,-0.5,29.65,NNW,338,8.3,10.1,46,0.00,,CLR,0.00,VWS V14.01,2013-11-27 14:33:00,
2013-11-27 08:34:00,16.7,-0.5,29.65,North,357,10.5,11.0,46,0.00,,CLR,0.00,VWS V14.01,2013-11-27 14:34:00,
2013-11-27 08:35:00,16.7,-0.5,29.65,North,357,7.6,8.7,46,0.00,,CLR,0.00,VWS V14.01,2013-11-27 14:35:00,
2013-11-27 08:36:00,16.9,-0.3,29.65,NNW,334,8.3,10.1,46,0.00,,CLR,0.00,VWS V14.01,2013-11-27 14:36:00,
2013-11-27 08:38:00,16.9,-0.3,29.65,NNW,348,6.3,10.5,46,0.00,,CLR,0.00,VWS V14.01,2013-11-27 14:38:00,
2013-11-27 08:39:00,17.1,-0.1,29.65,NW,326,11.0,12.8,46,0.00,,CLR,0.00,VWS V14.01,2013-11-27 14:39:00,
2013-11-27 08:40:00,17.1,-0.1,29.65,NW,325,12.8,12.8,46,0.00,,CLR,0.00,VWS V14.01,2013-11-27 14:40:00,
2013-11-27 08:41:00,17.1,-0.1,29.65,NNW,333,10.1,10.1,46,0.00,,CLR,0.00,VWS V14.01,2013-11-27 14:41:00,
2013-11-27 08:44:00,17.2,0.0,29.65,NNW,328,12.3,12.3,46,0.00,,CLR,0.00,VWS V14.01,2013-11-27 14:44:00,
2013-11-27 08:45:00,17.2,0.0,29.65,NNW,334,10.5,12.3,46,0.00,,CLR,0.00,VWS V14.01,2013-11-27 14:45:00,
2013-11-27 08:46:00,17.4,0.2,29.65,NW,326,11.0,11.0,46,0.00,,CLR,0.00,VWS V14.01,2013-11-27 14:46:00,
2013-11-27 08:47:00,17.4,0.2,29.65,NNW,332,8.3,8.3,46,0.00,,CLR,0.00,VWS V14.01,2013-11-27 14:47:00,
2013-11-27 08:49:00,17.6,0.3,29.65,NNW,328,10.5,10.5,46,0.00,,CLR,0.00,VWS V14.01,2013-11-27 14:49:00,
2013-11-27 08:50:00,17.6,0.3,29.65,NNW,328,8.3,11.0,46,0.00,,CLR,0.00,VWS V14.01,2013-11-27 14:50:00,
2013-11-27 08:51:00,17.6,0.3,29.65,NNW,340,12.3,12.3,46,0.00,,CLR,0.00,VWS V14.01,2013-11-27 14:51:00,
2013-11-27 08:52:00,17.6,0.3,29.65,NNW,333,8.1,13.2,46,0.00,,CLR,0.00,VWS V14.01,2013-11-27 14:52:00,
2013-11-27 08:55:00,17.8,0.5,29.65,North,0,10.1,12.3,46,0.00,,CLR,0.00,VWS V14.01,2013-11-27 14:55:00,
2013-11-27 08:56:00,17.8,0.5,29.65,North,353,10.5,12.8,46,0.00,,CLR,0.00,VWS V14.01,2013-11-27 14:56:00,
2013-11-27 08:57:00,17.6,0.3,29.65,North,357,8.7,15.4,46,0.00,,CLR,0.00,VWS V14.01,2013-11-27 14:57:00,
2013-11-27 08:58:00,17.8,0.5,29.65,NNW,331,10.1,11.0,46,0.00,,CLR,0.00,VWS V14.01,2013-11-27 14:58:00,
2013-11-27 09:00:00,18.0,0.7,29.65,NNW,328,10.1,10.1,46,0.00,,CLR,0.00,VWS V14.01,2013-11-27 15:00:00,
2013-11-27 09:02:00,18.1,0.9,29.65,North,0,11.0,13.2,46,0.00,,CLR,0.00,VWS V14.01,2013-11-27 15:02:00,
2013-11-27 09:03:00,18.1,0.9,29.65,North,353,11.4,11.4,46,0.00,,CLR,0.00,VWS V14.01,2013-11-27 15:03:00,
2013-11-27 09:05:00,18.1,0.9,29.65,NNW,327,8.7,12.8,46,0.00,,CLR,0.00,VWS V14.01,2013-11-27 15:05:00,
2013-11-27 09:07:00,18.5,1.2,29.65,North,357,9.2,9.2,46,0.00,,CLR,0.00,VWS V14.01,2013-11-27 15:07:00,
2013-11-27 09:08:00,18.5,1.2,29.65,NNW,336,10.5,11.4,46,0.00,,CLR,0.00,VWS V14.01,2013-11-27 15:08:00,
2013-11-27 09:10:00,18.7,1.4,29.65,NNW,337,10.1,10.1,46,0.00,,CLR,0.00,VWS V14.01,2013-11-27 15:10:00,
2013-11-27 09:12:00,18.9,1.5,29.65,NNW,342,8.3,12.8,46,0.00,,CLR,0.00,VWS V14.01,2013-11-27 15:12:00,
2013-11-27 09:13:00,18.9,1.5,29.65,North,7,11.9,12.8,46,0.00,,CLR,0.00,VWS V14.01,2013-11-27 15:13:00,
2013-11-27 09:15:00,19.0,1.7,29.65,NW,326,8.7,8.7,46,0.00,,CLR,0.00,VWS V14.01,2013-11-27 15:15:00,
2013-11-27 09:16:00,19.0,1.7,29.65,NW,320,8.3,8.7,46,0.00,,CLR,0.00,VWS V14.01,2013-11-27 15:16:00,
2013-11-27 09:17:00,19.0,1.7,29.65,NNW,328,12.3,12.3,46,0.00,,CLR,0.00,VWS V14.01,2013-11-27 15:17:00,
2013-11-27 09:18:00,19.0,1.7,29.65,NW,323,11.0,12.3,46,0.00,,CLR,0.00,VWS V14.01,2013-11-27 15:18:00,
2013-11-27 09:21:00,19.2,1.8,29.65,NNW,329,11.0,11.0,46,0.00,,CLR,0.00,VWS V14.01,2013-11-27 15:21:00,
2013-11-27 09:23:00,19.2,1.8,29.65,NNW,348,8.3,10.1,46,0.00,,CLR,0.00,VWS V14.01,2013-11-27 15:23:00,
2013-11-27 09:24:00,19.4,2.0,29.65,NNW,341,8.7,8.7,46,0.00,,CLR,0.00,VWS V14.01,2013-11-27 15:24:00,
2013-11-27 09:25:00,19.4,2.0,29.65,North,357,11.0,11.0,46,0.00,,CLR,0.00,VWS V14.01,2013-11-27 15:25:00,
2013-11-27 09:26:00,19.4,2.0,29.65,NNW,339,8.3,11.0,46,0.00,,CLR,0.00,VWS V14.01,2013-11-27 15:26:00,
2013-11-27 09:27:00,19.6,1.2,29.65,NNW,327,8.3,12.8,44,0.00,,CLR,0.00,VWS V14.01,2013-11-27 15:27:00,
2013-11-27 09:29:00,19.6,1.2,29.65,North,11,12.8,12.8,44,0.00,,CLR,0.00,VWS V14.01,2013-11-27 15:29:00,
2013-11-27 09:30:00,19.6,1.2,29.65,NNW,341,11.0,11.0,44,0.00,,CLR,0.00,VWS V14.01,2013-11-27 15:30:00,
2013-11-27 09:31:00,19.8,1.4,29.65,North,353,8.7,8.7,44,0.00,,CLR,0.00,VWS V14.01,2013-11-27 15:31:00,
2013-11-27 09:32:00,19.8,1.4,29.65,NNE,20,8.7,10.1,44,0.00,,CLR,0.00,VWS V14.01,2013-11-27 15:32:00,
2013-11-27 09:33:00,19.8,1.4,29.65,North,10,11.0,12.8,44,0.00,,CLR,0.00,VWS V14.01,2013-11-27 15:33:00,
2013-11-27 09:35:00,19.8,1.4,29.65,North,9,6.7,12.8,44,0.00,,CLR,0.00,VWS V14.01,2013-11-27 15:35:00,
2013-11-27 09:36:00,19.9,1.5,29.65,North,0,11.4,11.4,44,0.00,,CLR,0.00,VWS V14.01,2013-11-27 15:36:00,
2013-11-27 09:37:00,20.1,1.7,29.65,North,350,10.1,11.4,44,0.00,,CLR,0.00,VWS V14.01,2013-11-27 15:37:00,
2013-11-27 09:39:00,20.3,1.9,29.65,NNW,334,7.6,11.0,44,0.00,,CLR,0.00,VWS V14.01,2013-11-27 15:39:00,
2013-11-27 09:42:00,20.5,2.0,29.65,NW,326,13.6,13.6,44,0.00,,CLR,0.00,VWS V14.01,2013-11-27 15:42:00,
2013-11-27 09:44:00,20.5,2.0,29.65,NW,326,11.0,11.0,44,0.00,,CLR,0.00,VWS V14.01,2013-11-27 15:44:00,
2013-11-27 09:47:00,20.7,2.2,29.65,North,357,6.3,8.7,44,0.00,,CLR,0.00,VWS V14.01,2013-11-27 15:47:00,
2013-11-27 09:50:00,20.5,2.0,29.65,North,357,8.7,10.1,44,0.00,,CLR,0.00,VWS V14.01,2013-11-27 15:50:00,
2013-11-27 09:52:00,20.7,2.2,29.65,NNW,342,8.3,10.5,44,0.00,,CLR,0.00,VWS V14.01,2013-11-27 15:52:00,
2013-11-27 09:53:00,20.7,2.2,29.65,NNE,13,8.3,10.5,44,0.00,,CLR,0.00,VWS V14.01,2013-11-27 15:53:00,
2013-11-27 09:55:00,20.8,2.4,29.65,North,7,7.6,11.0,44,0.00,,CLR,0.00,VWS V14.01,2013-11-27 15:55:00,
2013-11-27 09:58:00,20.8,2.4,29.65,NNW,336,11.0,11.0,44,0.00,,CLR,0.00,VWS V14.01,2013-11-27 15:58:00,
2013-11-27 09:59:00,21.0,2.5,29.65,NNW,335,8.1,11.0,44,0.00,,CLR,0.00,VWS V14.01,2013-11-27 15:59:00,
2013-11-27 10:00:00,21.0,2.5,29.65,NNW,348,10.5,11.0,44,0.00,,CLR,0.00,VWS V14.01,2013-11-27 16:00:00,
2013-11-27 10:03:00,21.2,2.7,29.65,NNW,330,8.7,8.7,44,0.00,,CLR,0.00,VWS V14.01,2013-11-27 16:03:00,
2013-11-27 10:04:00,21.4,2.9,29.65,North,357,11.0,11.0,44,0.00,,CLR,0.00,VWS V14.01,2013-11-27 16:04:00,
2013-11-27 10:06:00,21.6,3.0,29.65,NNW,329,8.1,8.1,44,0.00,,CLR,0.00,VWS V14.01,2013-11-27 16:06:00,
2013-11-27 10:09:00,21.2,2.7,29.65,North,1,7.6,7.6,44,0.00,,CLR,0.00,VWS V14.01,2013-11-27 16:09:00,
2013-11-27 10:10:00,21.4,2.9,29.65,NW,322,10.1,11.0,44,0.00,,CLR,0.00,VWS V14.01,2013-11-27 16:10:00,
2013-11-27 10:11:00,21.4,2.9,29.65,NW,324,10.1,11.0,44,0.00,,CLR,0.00,VWS V14.01,2013-11-27 16:11:00,
2013-11-27 10:14:00,21.6,3.0,29.65,NNW,338,8.1,8.3,44,0.00,,CLR,0.00,VWS V14.01,2013-11-27 16:14:00,
2013-11-27 10:15:00,21.6,3.0,29.65,North,350,8.7,8.7,44,0.00,,CLR,0.00,VWS V14.01,2013-11-27 16:15:00,
2013-11-27 10:16:00,21.6,3.0,29.65,North,8,10.1,10.1,44,0.00,,CLR,0.00,VWS V14.01,2013-11-27 16:16:00,
2013-11-27 10:17:00,21.6,3.0,29.65,NNE,23,8.3,10.1,44,0.00,,CLR,0.00,VWS V14.01,2013-11-27 16:17:00,
2013-11-27 10:20:00,21.7,3.2,29.65,North,353,10.1,11.0,44,0.00,,CLR,0.00,VWS V14.01,2013-11-27 16:20:00,
2013-11-27 10:21:00,21.9,3.4,29.65,NW,319,10.5,11.0,44,0.00,,CLR,0.00,VWS V14.01,2013-11-27 16:21:00,
2013-11-27 10:22:00,21.9,3.4,29.65,NNW,332,10.5,10.5,44,0.00,,CLR,0.00,VWS V14.01,2013-11-27 16:22:00,
2013-11-27 10:23:00,21.9,3.4,29.65,NNW,336,8.3,10.5,44,0.00,,CLR,0.00,VWS V14.01,2013-11-27 16:23:00,
2013-11-27 10:26:00,21.9,3.4,29.65,North,0,8.7,8.7,44,0.00,,CLR,0.00,VWS V14.01,2013-11-27 16:26:00,
2013-11-27 10:27:00,22.3,3.7,29.65,North,1,8.1,8.1,44,0.00,,CLR,0.00,VWS V14.01,2013-11-27 16:27:00,
2013-11-27 10:28:00,22.5,3.9,29.65,NW,322,7.6,8.7,44,0.00,,CLR,0.00,VWS V14.01,2013-11-27 16:28:00,
2013-11-27 10:31:00,22.5,3.9,29.65,NNW,329,5.4,7.6,44,0.00,,CLR,0.00,VWS V14.01,2013-11-27 16:31:00,
2013-11-27 10:32:00,22.5,3.9,29.65,NW,319,8.7,10.1,44,0.00,,CLR,0.00,VWS V14.01,2013-11-27 16:32:00,
2013-11-27 10:33:00,22.5,3.9,29.65,NNW,334,11.4,11.4,44,0.00,,CLR,0.00,VWS V14.01,2013-11-27 16:33:00,
2013-11-27 10:34:00,22.5,3.9,29.65,NNW,336,9.6,11.4,44,0.00,,CLR,0.00,VWS V14.01,2013-11-27 16:34:00,
2013-11-27 10:35:00,22.5,3.9,29.65,NNW,328,8.1,8.3,44,0.00,,CLR,0.00,VWS V14.01,2013-11-27 16:35:00,
2013-11-27 10:36:00,22.3,3.7,29.65,NNW,335,6.3,7.6,44,0.00,,CLR,0.00,VWS V14.01,2013-11-27 16:36:00,
2013-11-27 10:37:00,22.5,3.9,29.65,NW,306,7.6,7.6,44,0.00,,CLR,0.00,VWS V14.01,2013-11-27 16:37:00,
2013-11-27 10:39:00,22.5,3.9,29.65,NW,321,6.3,6.3,44,0.00,,CLR,0.00,VWS V14.01,2013-11-27 16:39:00,
2013-11-27 10:40:00,22.6,4.0,29.65,North,2,8.1,11.0,44,0.00,,CLR,0.00,VWS V14.01,2013-11-27 16:40:00,
2013-11-27 10:41:00,22.8,4.2,29.65,North,9,8.1,11.0,44,0.00,,CLR,0.00,VWS V14.01,2013-11-27 16:41:00,
2013-11-27 10:44:00,23.2,4.5,29.65,NW,324,7.6,12.8,44,0.00,,CLR,0.00,VWS V14.01,2013-11-27 16:44:00,
2013-11-27 10:45:00,23.0,4.3,29.65,NW,324,8.1,8.7,44,0.00,,CLR,0.00,VWS V14.01,2013-11-27 16:45:00,
2013-11-27 10:46:00,23.2,4.5,29.65,NW,310,5.4,5.8,44,0.00,,CLR,0.00,VWS V14.01,2013-11-27 16:46:00,
2013-11-27 10:50:00,23.5,4.8,29.65,NNE,13,8.3,8.3,44,0.00,,CLR,0.00,VWS V14.01,2013-11-27 16:50:00,
2013-11-27 10:51:00,23.5,4.8,29.65,North,10,8.3,8.7,44,0.00,,CLR,0.00,VWS V14.01,2013-11-27 16:51:00,
2013-11-27 10:52:00,23.7,5.0,29.65,North,10,10.1,10.1,44,0.00,,CLR,0.00,VWS V14.01,2013-11-27 16:52:00,
2013-11-27 10:55:00,23.9,5.2,29.62,NW,324,8.3,10.1,44,0.00,,CLR,0.00,VWS V14.01,2013-11-27 16:55:00,
2013-11-27 10:56:00,23.7,5.0,29.62,NNW,329,6.3,8.7,44,0.00,,CLR,0.00,VWS V14.01,2013-11-27 16:56:00,
2013-11-27 10:57:00,23.7,5.0,29.62,NNW,329,6.3,8.7,44,0.00,,CLR,0.00,VWS V14.01,2013-11-27 16:57:00,
2013-11-27 11:02:00,23.7,5.0,29.62,NNW,332,5.8,6.3,44,0.00,,CLR,0.00,VWS V14.01,2013-11-27 17:02:00,
2013-11-27 11:03:00,23.5,4.8,29.62,NW,317,9.6,9.6,44,0.00,,CLR,0.00,VWS V14.01,2013-11-27 17:03:00,
2013-11-27 11:04:00,23.7,5.0,29.62,NNW,332,8.1,8.1,44,0.00,,CLR,0.00,VWS V14.01,2013-11-27 17:04:00,
2013-11-27 11:07:00,23.7,5.0,29.62,NW,316,10.1,10.1,44,0.00,,CLR,0.00,VWS V14.01,2013-11-27 17:07:00,
2013-11-27 11:08:00,23.7,5.0,29.62,North,353,11.0,11.0,44,0.00,,CLR,0.00,VWS V14.01,2013-11-27 17:08:00,
2013-11-27 11:09:00,23.9,5.2,29.62,NNW,338,8.3,11.0,44,0.00,,CLR,0.00,VWS V14.01,2013-11-27 17:09:00,
2013-11-27 11:12:00,24.1,5.3,29.62,North,5,6.3,10.5,44,0.00,,CLR,0.00,VWS V14.01,2013-11-27 17:12:00,
2013-11-27 11:13:00,24.1,5.3,29.62,North,8,5.8,10.5,44,0.00,,CLR,0.00,VWS V14.01,2013-11-27 17:13:00,
2013-11-27 11:14:00,24.4,5.7,29.62,North,11,5.8,8.3,44,0.00,,CLR,0.00,VWS V14.01,2013-11-27 17:14:00,
2013-11-27 11:18:00,24.4,5.7,29.62,NNW,327,8.1,8.1,44,0.00,,CLR,0.00,VWS V14.01,2013-11-27 17:18:00,
2013-11-27 11:19:00,24.4,5.7,29.62,NNE,18,8.1,8.3,44,0.00,,CLR,0.00,VWS V14.01,2013-11-27 17:19:00,
2013-11-27 11:21:00,25.0,5.1,29.62,NE,39,4.9,10.1,42,0.00,,CLR,0.00,VWS V14.01,2013-11-27 17:21:00,
2013-11-27 11:23:00,25.2,5.3,29.62,NNW,348,5.8,6.3,42,0.00,,CLR,0.00,VWS V14.01,2013-11-27 17:23:00,
2013-11-27 11:24:00,25.3,5.5,29.59,NW,308,5.8,8.1,42,0.00,,CLR,0.00,VWS V14.01,2013-11-27 17:24:00,
2013-11-27 11:25:00,25.3,5.5,29.59,NW,310,8.1,8.1,42,0.00,,CLR,0.00,VWS V14.01,2013-11-27 17:25:00,
2013-11-27 11:26:00,25.3,5.5,29.59,NW,317,5.4,8.3,42,0.00,,CLR,0.00,VWS V14.01,2013-11-27 17:26:00,
2013-11-27 11:28:00,25.0,5.1,29.59,NW,326,11.0,11.0,42,0.00,,CLR,0.00,VWS V14.01,2013-11-27 17:28:00,
2013-11-27 11:30:00,25.2,5.3,29.59,North,7,4.9,4.9,42,0.00,,CLR,0.00,VWS V14.01,2013-11-27 17:30:00,
2013-11-27 11:31:00,25.0,5.1,29.59,NNE,15,8.3,8.3,42,0.00,,CLR,0.00,VWS V14.01,2013-11-27 17:31:00,
2013-11-27 11:33:00,25.2,5.3,29.59,North,350,6.3,6.3,42,0.00,,CLR,0.00,VWS V14.01,2013-11-27 17:33:00,
2013-11-27 11:34:00,25.3,5.5,29.59,NW,314,6.7,7.6,42,0.00,,CLR,0.00,VWS V14.01,2013-11-27 17:34:00,
2013-11-27 11:35:00,25.2,5.3,29.59,NW,321,6.3,7.6,42,0.00,,CLR,0.00,VWS V14.01,2013-11-27 17:35:00,
2013-11-27 11:37:00,25.3,5.5,29.59,NW,310,6.3,6.3,42,0.00,,CLR,0.00,VWS V14.01,2013-11-27 17:37:00,
2013-11-27 11:38:00,25.3,5.5,29.59,NW,306,8.1,8.7,42,0.00,,CLR,0.00,VWS V14.01,2013-11-27 17:38:00,
2013-11-27 11:39:00,25.3,5.5,29.59,NW,313,8.1,8.1,42,0.00,,CLR,0.00,VWS V14.01,2013-11-27 17:39:00,
2013-11-27 11:40:00,25.3,5.5,29.62,NW,313,5.8,8.1,42,0.00,,CLR,0.00,VWS V14.01,2013-11-27 17:40:00,
2013-11-27 11:41:00,25.2,5.3,29.62,NW,313,5.4,7.6,42,0.00,,CLR,0.00,VWS V14.01,2013-11-27 17:41:00,
2013-11-27 11:43:00,25.5,5.6,29.62,North,353,10.5,10.5,42,0.00,,CLR,0.00,VWS V14.01,2013-11-27 17:43:00,
2013-11-27 11:44:00,25.9,6.0,29.62,NNW,327,10.1,10.1,42,0.00,,CLR,0.00,VWS V14.01,2013-11-27 17:44:00,
2013-11-27 11:45:00,26.1,6.1,29.62,North,357,8.1,10.5,42,0.00,,CLR,0.00,VWS V14.01,2013-11-27 17:45:00,
2013-11-27 11:47:00,26.1,6.1,29.62,NNW,327,6.3,8.7,42,0.00,,CLR,0.00,VWS V14.01,2013-11-27 17:47:00,
2013-11-27 11:48:00,26.1,6.1,29.62,NNW,334,8.1,8.7,42,0.00,,CLR,0.00,VWS V14.01,2013-11-27 17:48:00,
2013-11-27 11:50:00,26.1,6.1,29.62,NW,320,4.0,8.1,42,0.00,,CLR,0.00,VWS V14.01,2013-11-27 17:50:00,
2013-11-27 11:51:00,26.4,6.4,29.62,WNW,302,4.9,5.4,42,0.00,,CLR,0.00,VWS V14.01,2013-11-27 17:51:00,
2013-11-27 11:53:00,26.4,6.4,29.62,NNW,331,5.8,5.8,42,0.00,,CLR,0.00,VWS V14.01,2013-11-27 17:53:00,
2013-11-27 11:54:00,26.4,6.4,29.62,NW,312,4.0,5.4,42,0.00,,CLR,0.00,VWS V14.01,2013-11-27 17:54:00,
2013-11-27 11:55:00,26.6,6.6,29.59,NW,310,5.4,5.4,42,0.00,,CLR,0.00,VWS V14.01,2013-11-27 17:55:00,
2013-11-27 11:56:00,26.4,6.4,29.59,NNW,327,7.6,7.6,42,0.00,,CLR,0.00,VWS V14.01,2013-11-27 17:56:00,
2013-11-27 11:58:00,26.2,6.3,29.59,NNW,328,7.6,8.7,42,0.00,,CLR,0.00,VWS V14.01,2013-11-27 17:58:00,
2013-11-27 11:59:00,26.2,6.3,29.59,NNW,341,8.1,8.7,42,0.00,,CLR,0.00,VWS V14.01,2013-11-27 17:59:00,
2013-11-27 12:00:00,26.2,6.3,29.59,NW,324,8.3,8.3,42,0.00,,CLR,0.00,VWS V14.01,2013-11-27 18:00:00,
2013-11-27 12:01:00,26.2,6.3,29.59,NW,325,7.6,8.3,42,0.00,,CLR,0.00,VWS V14.01,2013-11-27 18:01:00,
2013-11-27 12:03:00,26.2,6.3,29.59,North,0,4.0,8.3,42,0.00,,CLR,0.00,VWS V14.01,2013-11-27 18:03:00,
2013-11-27 12:04:00,26.2,6.3,29.59,North,2,3.6,8.3,42,0.00,,CLR,0.00,VWS V14.01,2013-11-27 18:04:00,
2013-11-27 12:05:00,26.6,6.6,29.59,NW,320,7.6,7.6,42,0.00,,CLR,0.00,VWS V14.01,2013-11-27 18:05:00,
2013-11-27 12:06:00,26.6,6.6,29.59,NW,319,5.8,7.6,42,0.00,,CLR,0.00,VWS V14.01,2013-11-27 18:06:00,
2013-11-27 12:08:00,26.8,6.8,29.59,NNW,346,6.3,6.3,42,0.00,,CLR,0.00,VWS V14.01,2013-11-27 18:08:00,
2013-11-27 12:09:00,27.0,6.9,29.59,NW,319,10.5,10.5,42,0.00,,CLR,0.00,VWS V14.01,2013-11-27 18:09:00,
2013-11-27 12:10:00,27.1,7.1,29.59,NW,316,10.1,10.1,42,0.00,,CLR,0.00,VWS V14.01,2013-11-27 18:10:00,
2013-11-27 12:11:00,27.0,6.9,29.59,NW,318,6.3,11.0,42,0.00,,CLR,0.00,VWS V14.01,2013-11-27 18:11:00,
2013-11-27 12:12:00,27.1,7.1,29.59,West,277,5.4,6.3,42,0.00,,CLR,0.00,VWS V14.01,2013-11-27 18:12:00,
2013-11-27 12:14:00,27.0,6.9,29.59,NW,304,6.3,8.7,42,0.00,,CLR,0.00,VWS V14.01,2013-11-27 18:14:00,
2013-11-27 12:15:00,27.0,6.9,29.59,WNW,297,4.0,8.7,42,0.00,,CLR,0.00,VWS V14.01,2013-11-27 18:15:00,
2013-11-27 12:16:00,27.0,6.9,29.59,NW,323,6.3,6.3,42,0.00,,CLR,0.00,VWS V14.01,2013-11-27 18:16:00,
2013-11-27 12:17:00,27.0,6.9,29.59,NW,323,6.3,6.3,42,0.00,,CLR,0.00,VWS V14.01,2013-11-27 18:17:00,
2013-11-27 12:20:00,27.0,6.9,29.59,NW,323,6.3,7.6,42,0.00,,CLR,0.00,VWS V14.01,2013-11-27 18:20:00,
2013-11-27 12:22:00,27.0,6.9,29.59,NW,319,6.3,8.7,42,0.00,,CLR,0.00,VWS V14.01,2013-11-27 18:22:00,
2013-11-27 12:23:00,27.0,6.9,29.59,NW,309,3.6,6.7,42,0.00,,CLR,0.00,VWS V14.01,2013-11-27 18:23:00,
2013-11-27 12:25:00,27.1,7.1,29.59,NNW,335,10.5,10.5,42,0.00,,CLR,0.00,VWS V14.01,2013-11-27 18:25:00,
2013-11-27 12:27:00,27.5,7.4,29.59,North,0,10.5,12.3,42,0.00,,CLR,0.00,VWS V14.01,2013-11-27 18:27:00,
2013-11-27 12:28:00,27.9,7.8,29.59,North,357,11.0,11.0,42,0.00,,CLR,0.00,VWS V14.01,2013-11-27 18:28:00,
2013-11-27 12:29:00,27.9,7.8,29.59,North,4,10.5,10.5,42,0.00,,CLR,0.00,VWS V14.01,2013-11-27 18:29:00,
2013-11-27 12:30:00,27.9,7.8,29.59,North,0,6.7,6.7,42,0.00,,CLR,0.00,VWS V14.01,2013-11-27 18:30:00,
2013-11-27 12:33:00,27.9,7.8,29.59,NW,317,8.3,8.7,42,0.00,,CLR,0.00,VWS V14.01,2013-11-27 18:33:00,
2013-11-27 12:34:00,27.9,7.8,29.59,WNW,302,6.3,8.3,42,0.00,,CLR,0.00,VWS V14.01,2013-11-27 18:34:00,
2013-11-27 12:36:00,27.9,7.8,29.59,NW,318,7.6,7.6,42,0.00,,CLR,0.00,VWS V14.01,2013-11-27 18:36:00,
2013-11-27 12:37:00,28.0,7.9,29.59,WNW,298,5.4,5.8,42,0.00,,CLR,0.00,VWS V14.01,2013-11-27 18:37:00,
2013-11-27 12:38:00,28.2,8.1,29.59,WNW,283,3.6,4.0,42,0.00,,CLR,0.00,VWS V14.01,2013-11-27 18:38:00,
2013-11-27 12:39:00,28.2,8.1,29.59,WNW,299,7.6,7.6,42,0.00,,CLR,0.00,VWS V14.01,2013-11-27 18:39:00,
2013-11-27 12:40:00,28.0,7.9,29.59,NW,318,8.7,9.6,42,0.00,,CLR,0.00,VWS V14.01,2013-11-27 18:40:00,
2013-11-27 12:42:00,27.9,7.8,29.59,NNW,338,8.7,8.7,42,0.00,,CLR,0.00,VWS V14.01,2013-11-27 18:42:00,
2013-11-27 12:43:00,27.9,7.8,29.59,NNW,338,7.6,8.7,42,0.00,,CLR,0.00,VWS V14.01,2013-11-27 18:43:00,
2013-11-27 12:44:00,28.0,7.9,29.59,NNW,333,7.2,8.1,42,0.00,,CLR,0.00,VWS V14.01,2013-11-27 18:44:00,
2013-11-27 12:45:00,28.0,7.9,29.59,North,4,5.8,7.6,42,0.00,,CLR,0.00,VWS V14.01,2013-11-27 18:45:00,
2013-11-27 12:48:00,28.0,7.9,29.59,NW,320,7.6,10.5,42,0.00,,CLR,0.00,VWS V14.01,2013-11-27 18:48:00,
2013-11-27 12:49:00,27.9,7.8,29.59,NW,315,10.5,10.5,42,0.00,,CLR,0.00,VWS V14.01,2013-11-27 18:49:00,
2013-11-27 12:50:00,27.7,7.6,29.59,NW,320,10.5,11.0,42,0.00,,CLR,0.00,VWS V14.01,2013-11-27 18:50:00,
2013-11-27 12:51:00,27.7,7.6,29.59,NW,320,8.3,11.0,42,0.00,,CLR,0.00,VWS V14.01,2013-11-27 18:51:00,
2013-11-27 12:52:00,27.7,7.6,29.59,NW,323,6.3,7.6,42,0.00,,CLR,0.00,VWS V14.01,2013-11-27 18:52:00,
2013-11-27 12:53:00,27.7,7.6,29.59,NNW,329,7.6,8.7,42,0.00,,CLR,0.00,VWS V14.01,2013-11-27 18:53:00,
2013-11-27 12:54:00,27.7,7.6,29.59,NNW,328,5.8,5.8,42,0.00,,CLR,0.00,VWS V14.01,2013-11-27 18:54:00,
2013-11-27 12:55:00,27.7,7.6,29.59,NNW,340,6.3,8.7,42,0.00,,CLR,0.00,VWS V14.01,2013-11-27 18:55:00,
2013-11-27 12:56:00,27.7,7.6,29.59,NNW,331,6.3,8.7,42,0.00,,CLR,0.00,VWS V14.01,2013-11-27 18:56:00,
2013-11-27 12:58:00,27.9,7.8,29.59,NW,321,4.9,8.7,42,0.00,,CLR,0.00,VWS V14.01,2013-11-27 18:58:00,
2013-11-27 13:00:00,27.9,7.8,29.59,NNW,345,5.8,6.3,42,0.00,,CLR,0.00,VWS V14.01,2013-11-27 19:00:00,
2013-11-27 13:01:00,27.7,7.6,29.59,NNW,330,6.3,6.3,42,0.00,,CLR,0.00,VWS V14.01,2013-11-27 19:01:00,
2013-11-27 13:02:00,27.9,7.8,29.59,NNW,337,3.1,6.3,42,0.00,,CLR,0.00,VWS V14.01,2013-11-27 19:02:00,
2013-11-27 13:04:00,28.4,8.2,29.59,WNW,288,5.8,6.3,42,0.00,,CLR,0.00,VWS V14.01,2013-11-27 19:04:00,
2013-11-27 13:05:00,28.6,7.3,29.59,WNW,300,5.8,5.8,40,0.00,,CLR,0.00,VWS V14.01,2013-11-27 19:05:00,
2013-11-27 13:06:00,29.1,7.8,29.59,WNW,301,6.7,6.7,40,0.00,,CLR,0.00,VWS V14.01,2013-11-27 19:06:00,
2013-11-27 13:07:00,29.1,7.8,29.59,NW,305,5.8,5.8,40,0.00,,CLR,0.00,VWS V14.01,2013-11-27 19:07:00,
2013-11-27 13:11:00,29.3,8.0,29.56,West,280,4.9,5.8,40,0.00,,CLR,0.00,VWS V14.01,2013-11-27 19:11:00,
2013-11-27 13:12:00,29.3,8.0,29.56,WNW,286,4.0,5.8,40,0.00,,CLR,0.00,VWS V14.01,2013-11-27 19:12:00,
2013-11-27 13:13:00,29.5,8.1,29.56,WSW,247,4.0,6.3,40,0.00,,CLR,0.00,VWS V14.01,2013-11-27 19:13:00,
2013-11-27 13:14:00,29.5,11.3,29.56,NW,317,8.3,8.3,46,0.00,,CLR,0.00,VWS V14.01,2013-11-27 19:14:00,
2013-11-27 13:16:00,29.5,11.3,29.56,WNW,293,6.3,8.1,46,0.00,,CLR,0.00,VWS V14.01,2013-11-27 19:16:00,
2013-11-27 13:17:00,29.5,11.3,29.56,WNW,283,4.0,5.8,46,0.00,,CLR,0.00,VWS V14.01,2013-11-27 19:17:00,
2013-11-27 13:18:00,29.5,8.1,29.56,WSW,243,8.3,8.3,40,0.00,,CLR,0.00,VWS V14.01,2013-11-27 19:18:00,
2013-11-27 13:19:00,29.7,11.4,29.56,WSW,247,4.0,4.0,46,0.00,,CLR,0.00,VWS V14.01,2013-11-27 19:19:00,
2013-11-27 13:20:00,29.7,11.4,29.56,West,259,3.1,5.4,46,0.00,,CLR,0.00,VWS V14.01,2013-11-27 19:20:00,
2013-11-27 13:21:00,30.0,11.8,29.56,West,259,3.6,3.6,46,0.00,,CLR,0.00,VWS V14.01,2013-11-27 19:21:00,
2013-11-27 13:22:00,30.2,11.9,29.56,WNW,286,5.4,5.4,46,0.00,,CLR,0.00,VWS V14.01,2013-11-27 19:22:00,
2013-11-27 13:23:00,30.0,11.8,29.56,WNW,286,5.8,5.8,46,0.00,,CLR,0.00,VWS V14.01,2013-11-27 19:23:00,
2013-11-27 13:24:00,30.2,11.9,29.56,West,270,4.9,5.8,46,0.00,,CLR,0.00,VWS V14.01,2013-11-27 19:24:00,
2013-11-27 13:25:00,30.4,12.1,29.59,West,269,2.7,5.8,46,0.00,,CLR,0.00,VWS V14.01,2013-11-27 19:25:00,
2013-11-27 13:26:00,30.6,12.3,29.59,West,268,3.1,5.4,46,0.00,,CLR,0.00,VWS V14.01,2013-11-27 19:26:00,
2013-11-27 13:28:00,30.6,12.3,29.59,West,268,3.1,3.6,46,0.00,,CLR,0.00,VWS V14.01,2013-11-27 19:28:00,
2013-11-27 13:29:00,30.6,12.3,29.59,WNW,285,3.1,4.9,46,0.00,,CLR,0.00,VWS V14.01,2013-11-27 19:29:00,
2013-11-27 13:30:00,30.6,12.3,29.59,WNW,296,3.6,5.4,46,0.00,,CLR,0.00,VWS V14.01,2013-11-27 19:30:00,
2013-11-27 13:31:00,30.0,11.8,29.59,NNW,341,5.8,7.6,46,0.00,,CLR,0.00,VWS V14.01,2013-11-27 19:31:00,
2013-11-27 13:32:00,29.7,11.4,29.59,NNW,338,5.8,6.3,46,0.00,,CLR,0.00,VWS V14.01,2013-11-27 19:32:00,
2013-11-27 13:33:00,29.7,11.4,29.59,NNW,345,4.0,6.3,46,0.00,,CLR,0.00,VWS V14.01,2013-11-27 19:33:00,
2013-11-27 13:34:00,29.5,11.3,29.59,NNW,340,5.8,5.8,46,0.00,,CLR,0.00,VWS V14.01,2013-11-27 19:34:00,
2013-11-27 13:35:00,29.7,11.4,29.59,NNW,341,3.6,5.8,46,0.00,,CLR,0.00,VWS V14.01,2013-11-27 19:35:00,
2013-11-27 13:37:00,29.7,11.4,29.59,West,266,4.0,6.3,46,0.00,,CLR,0.00,VWS V14.01,2013-11-27 19:37:00,
2013-11-27 13:38:00,30.0,11.8,29.59,NW,320,8.1,8.3,46,0.00,,CLR,0.00,VWS V14.01,2013-11-27 19:38:00,
2013-11-27 13:40:00,29.5,11.3,29.59,WNW,303,8.3,8.3,46,0.00,,CLR,0.00,VWS V14.01,2013-11-27 19:40:00,
2013-11-27 13:41:00,29.3,11.1,29.59,WNW,303,8.1,8.7,46,0.00,,CLR,0.00,VWS V14.01,2013-11-27 19:41:00,
2013-11-27 13:42:00,29.5,11.3,29.59,WNW,284,5.8,6.3,46,0.00,,CLR,0.00,VWS V14.01,2013-11-27 19:42:00,
2013-11-27 13:43:00,29.5,11.3,29.59,WNW,294,5.8,6.3,46,0.00,,CLR,0.00,VWS V14.01,2013-11-27 19:43:00,
2013-11-27 13:44:00,29.7,11.4,29.59,West,276,5.4,5.4,46,0.00,,CLR,0.00,VWS V14.01,2013-11-27 19:44:00,
2013-11-27 13:46:00,29.7,11.4,29.59,NW,311,4.0,5.8,46,0.00,,CLR,0.00,VWS V14.01,2013-11-27 19:46:00,
2013-11-27 13:47:00,29.5,11.3,29.59,WNW,287,5.4,5.4,46,0.00,,CLR,0.00,VWS V14.01,2013-11-27 19:47:00,
2013-11-27 13:50:00,29.7,11.4,29.59,NW,322,7.6,7.6,46,0.00,,CLR,0.00,VWS V14.01,2013-11-27 19:50:00,
2013-11-27 13:51:00,30.0,11.8,29.59,NW,323,2.2,3.1,46,0.00,,CLR,0.00,VWS V14.01,2013-11-27 19:51:00,
2013-11-27 13:52:00,30.0,11.8,29.59,NW,323,4.0,4.0,46,0.00,,CLR,0.00,VWS V14.01,2013-11-27 19:52:00,
2013-11-27 13:55:00,30.2,11.9,29.56,WNW,294,4.0,5.8,46,0.00,,CLR,0.00,VWS V14.01,2013-11-27 19:55:00,
2013-11-27 13:56:00,30.2,11.9,29.56,WNW,294,4.0,5.8,46,0.00,,CLR,0.00,VWS V14.01,2013-11-27 19:56:00,
2013-11-27 13:57:00,30.4,12.1,29.56,WNW,294,4.0,4.0,46,0.00,,CLR,0.00,VWS V14.01,2013-11-27 19:57:00,
2013-11-27 13:58:00,30.4,12.1,29.56,WNW,284,5.8,5.8,46,0.00,,CLR,0.00,VWS V14.01,2013-11-27 19:58:00,
2013-11-27 14:01:00,30.2,11.9,29.56,NW,308,5.4,7.6,46,0.00,,CLR,0.00,VWS V14.01,2013-11-27 20:01:00,
2013-11-27 14:02:00,30.2,11.9,29.56,NW,306,4.9,4.9,46,0.00,,CLR,0.00,VWS V14.01,2013-11-27 20:02:00,
2013-11-27 14:03:00,30.2,11.9,29.56,NW,306,4.9,4.9,46,0.00,,CLR,0.00,VWS V14.01,2013-11-27 20:03:00,
2013-11-27 14:04:00,30.2,11.9,29.56,NW,322,4.9,6.3,46,0.00,,CLR,0.00,VWS V14.01,2013-11-27 20:04:00,
2013-11-27 14:06:00,30.0,11.8,29.56,NW,310,6.3,8.1,46,0.00,,CLR,0.00,VWS V14.01,2013-11-27 20:06:00,
2013-11-27 14:08:00,30.0,11.8,29.56,NW,318,6.3,6.3,46,0.00,,CLR,0.00,VWS V14.01,2013-11-27 20:08:00,
2013-11-27 14:09:00,30.0,11.8,29.56,NW,320,5.4,6.3,46,0.00,,CLR,0.00,VWS V14.01,2013-11-27 20:09:00,
2013-11-27 14:10:00,30.4,12.1,29.56,WSW,241,6.3,6.3,46,0.00,,CLR,0.00,VWS V14.01,2013-11-27 20:10:00,
2013-11-27 14:13:00,30.7,12.4,29.56,NNW,330,11.0,11.0,46,0.00,,CLR,0.00,VWS V14.01,2013-11-27 20:13:00,
2013-11-27 14:14:00,30.7,12.4,29.56,WNW,301,8.7,11.0,46,0.00,,CLR,0.00,VWS V14.01,2013-11-27 20:14:00,
2013-11-27 14:15:00,30.9,12.6,29.56,NW,320,5.4,8.7,46,0.00,,CLR,0.00,VWS V14.01,2013-11-27 20:15:00,
2013-11-27 14:16:00,30.4,12.1,29.56,NW,311,6.3,7.6,46,0.00,,CLR,0.00,VWS V14.01,2013-11-27 20:16:00,
2013-11-27 14:18:00,30.4,12.1,29.56,NW,324,7.6,7.6,46,0.00,,CLR,0.00,VWS V14.01,2013-11-27 20:18:00,
2013-11-27 14:19:00,30.4,12.1,29.56,NNW,328,8.3,8.3,46,0.00,,CLR,0.00,VWS V14.01,2013-11-27 20:19:00,
2013-11-27 14:20:00,30.2,11.9,29.56,WNW,296,4.0,8.7,46,0.00,,CLR,0.00,VWS V14.01,2013-11-27 20:20:00,
2013-11-27 14:21:00,30.4,12.1,29.56,West,277,3.6,4.5,46,0.00,,CLR,0.00,VWS V14.01,2013-11-27 20:21:00,
2013-11-27 14:23:00,30.7,12.4,29.56,NW,304,4.9,5.8,46,0.00,,CLR,0.00,VWS V14.01,2013-11-27 20:23:00,
2013-11-27 14:25:00,30.6,12.3,29.56,NW,310,4.5,8.3,46,0.00,,CLR,0.00,VWS V14.01,2013-11-27 20:25:00,
2013-11-27 14:26:00,30.7,12.4,29.56,NW,306,4.0,4.9,46,0.00,,CLR,0.00,VWS V14.01,2013-11-27 20:26:00,
2013-11-27 14:29:00,30.4,12.1,29.56,WNW,283,3.1,6.3,46,0.00,,CLR,0.00,VWS V14.01,2013-11-27 20:29:00,
2013-11-27 14:30:00,30.6,12.3,29.56,WNW,302,5.4,6.3,46,0.00,,CLR,0.00,VWS V14.01,2013-11-27 20:30:00,
2013-11-27 14:32:00,30.4,12.1,29.56,NW,315,5.4,8.1,46,0.00,,CLR,0.00,VWS V14.01,2013-11-27 20:32:00,
2013-11-27 14:34:00,30.2,11.9,29.56,NW,324,4.9,6.3,46,0.00,,CLR,0.00,VWS V14.01,2013-11-27 20:34:00,
2013-11-27 14:35:00,30.0,11.8,29.56,NW,308,4.0,5.8,46,0.00,,CLR,0.00,VWS V14.01,2013-11-27 20:35:00,
2013-11-27 14:36:00,30.0,11.8,29.56,WSW,245,5.4,5.8,46,0.00,,CLR,0.00,VWS V14.01,2013-11-27 20:36:00,
2013-11-27 14:37:00,30.6,12.3,29.56,WSW,245,2.7,3.6,46,0.00,,CLR,0.00,VWS V14.01,2013-11-27 20:37:00,
2013-11-27 14:39:00,30.7,12.4,29.56,WSW,245,2.7,3.1,46,0.00,,CLR,0.00,VWS V14.01,2013-11-27 20:39:00,
2013-11-27 14:41:00,30.7,12.4,29.56,WNW,292,5.8,6.3,46,0.00,,CLR,0.00,VWS V14.01,2013-11-27 20:41:00,
2013-11-27 14:42:00,30.6,12.3,29.56,WNW,290,4.0,6.3,46,0.00,,CLR,0.00,VWS V14.01,2013-11-27 20:42:00,
2013-11-27 14:44:00,30.9,12.6,29.56,NW,307,5.4,5.4,46,0.00,,CLR,0.00,VWS V14.01,2013-11-27 20:44:00,
2013-11-27 14:45:00,30.7,12.4,29.56,NW,307,2.7,5.4,46,0.00,,CLR,0.00,VWS V14.01,2013-11-27 20:45:00,
2013-11-27 14:47:00,30.6,12.3,29.56,NW,311,4.9,5.4,46,0.00,,CLR,0.00,VWS V14.01,2013-11-27 20:47:00,
2013-11-27 14:48:00,30.7,12.4,29.56,WNW,289,4.0,4.9,46,0.00,,CLR,0.00,VWS V14.01,2013-11-27 20:48:00,
2013-11-27 14:50:00,31.1,12.8,29.56,West,277,4.0,4.5,46,0.00,,CLR,0.00,VWS V14.01,2013-11-27 20:50:00,
2013-11-27 14:52:00,30.9,12.6,29.56,WNW,283,6.3,6.3,46,0.00,,CLR,0.00,VWS V14.01,2013-11-27 20:52:00,
2013-11-27 14:53:00,30.9,12.6,29.56,West,275,5.4,6.3,46,0.00,,CLR,0.00,VWS V14.01,2013-11-27 20:53:00,
2013-11-27 14:54:00,30.7,12.4,29.56,WNW,293,3.6,5.8,46,0.00,,CLR,0.00,VWS V14.01,2013-11-27 20:54:00,
2013-11-27 14:55:00,30.7,12.4,29.56,WNW,292,3.1,5.4,46,0.00,,CLR,0.00,VWS V14.01,2013-11-27 20:55:00,
2013-11-27 14:56:00,30.9,12.6,29.56,WNW,293,3.6,5.4,46,0.00,,CLR,0.00,VWS V14.01,2013-11-27 20:56:00,
2013-11-27 14:58:00,30.6,12.3,29.56,NW,307,2.7,6.3,46,0.00,,CLR,0.00,VWS V14.01,2013-11-27 20:58:00,
2013-11-27 14:59:00,30.6,12.3,29.56,WNW,295,7.2,7.2,46,0.00,,CLR,0.00,VWS V14.01,2013-11-27 20:59:00,
2013-11-27 15:00:00,30.6,12.3,29.56,WNW,293,3.6,5.4,46,0.00,,CLR,0.00,VWS V14.01,2013-11-27 21:00:00,
2013-11-27 15:01:00,30.7,12.4,29.56,WNW,299,4.0,5.4,46,0.00,,CLR,0.00,VWS V14.01,2013-11-27 21:01:00,
2013-11-27 15:03:00,30.9,12.6,29.56,NW,304,4.0,4.0,46,0.00,,CLR,0.00,VWS V14.01,2013-11-27 21:03:00,
2013-11-27 15:04:00,30.7,12.4,29.56,NW,304,5.4,5.4,46,0.00,,CLR,0.00,VWS V14.01,2013-11-27 21:04:00,
2013-11-27 15:05:00,30.7,12.4,29.56,NW,305,5.4,5.4,46,0.00,,CLR,0.00,VWS V14.01,2013-11-27 21:05:00,
2013-11-27 15:06:00,30.7,12.4,29.56,NW,308,3.1,4.0,46,0.00,,CLR,0.00,VWS V14.01,2013-11-27 21:06:00,
2013-11-27 15:08:00,30.6,12.3,29.56,WNW,297,4.9,5.4,46,0.00,,CLR,0.00,VWS V14.01,2013-11-27 21:08:00,
2013-11-27 15:10:00,30.4,12.1,29.56,WNW,296,4.9,4.9,46,0.00,,CLR,0.00,VWS V14.01,2013-11-27 21:10:00,
2013-11-27 15:11:00,30.4,12.1,29.56,WNW,296,4.9,4.9,46,0.00,,CLR,0.00,VWS V14.01,2013-11-27 21:11:00,
2013-11-27 15:12:00,30.6,12.3,29.56,WNW,296,4.0,4.9,46,0.00,,CLR,0.00,VWS V14.01,2013-11-27 21:12:00,
2013-11-27 15:14:00,30.6,12.3,29.56,NW,304,4.0,4.5,46,0.00,,CLR,0.00,VWS V14.01,2013-11-27 21:14:00,
2013-11-27 15:15:00,30.4,12.1,29.56,NW,320,3.6,4.9,46,0.00,,CLR,0.00,VWS V14.01,2013-11-27 21:15:00,
2013-11-27 15:16:00,30.6,12.3,29.56,WSW,254,3.6,3.6,46,0.00,,CLR,0.00,VWS V14.01,2013-11-27 21:16:00,
2013-11-27 15:17:00,30.7,12.4,29.56,WSW,253,2.7,5.4,46,0.00,,CLR,0.00,VWS V14.01,2013-11-27 21:17:00,
2013-11-27 15:19:00,31.1,12.8,29.56,WSW,253,4.0,4.0,46,0.00,,CLR,0.00,VWS V14.01,2013-11-27 21:19:00,
2013-11-27 15:20:00,31.1,12.8,29.56,WSW,253,2.7,4.9,46,0.00,,CLR,0.00,VWS V14.01,2013-11-27 21:20:00,
2013-11-27 15:22:00,31.3,12.9,29.56,WSW,253,2.2,2.7,46,0.00,,CLR,0.00,VWS V14.01,2013-11-27 21:22:00,
2013-11-27 15:23:00,31.3,12.9,29.56,WSW,253,3.1,3.1,46,0.00,,CLR,0.00,VWS V14.01,2013-11-27 21:23:00,
2013-11-27 15:25:00,31.6,13.2,29.53,WSW,253,4.0,4.0,46,0.00,,CLR,0.00,VWS V14.01,2013-11-27 21:25:00,
2013-11-27 15:26:00,31.6,13.2,29.53,WSW,253,4.0,4.9,46,0.00,,CLR,0.00,VWS V14.01,2013-11-27 21:26:00,
2013-11-27 15:27:00,31.8,13.4,29.53,WSW,252,5.4,5.4,46,0.00,,CLR,0.00,VWS V14.01,2013-11-27 21:27:00,
2013-11-27 15:28:00,31.8,13.4,29.53,WSW,252,4.0,5.4,46,0.00,,CLR,0.00,VWS V14.01,2013-11-27 21:28:00,
2013-11-27 15:29:00,31.8,13.4,29.53,WSW,252,4.0,4.0,46,0.00,,CLR,0.00,VWS V14.01,2013-11-27 21:29:00,
2013-11-27 15:30:00,31.5,13.1,29.53,WNW,284,3.6,3.6,46,0.00,,CLR,0.00,VWS V14.01,2013-11-27 21:30:00,
2013-11-27 15:31:00,31.5,13.1,29.53,WNW,284,3.1,3.6,46,0.00,,CLR,0.00,VWS V14.01,2013-11-27 21:31:00,
2013-11-27 15:32:00,31.6,13.2,29.53,WNW,284,2.2,3.6,46,0.00,,CLR,0.00,VWS V14.01,2013-11-27 21:32:00,
2013-11-27 15:33:00,31.6,13.2,29.53,WNW,283,0.0,3.6,46,0.00,,CLR,0.00,VWS V14.01,2013-11-27 21:33:00,
2013-11-27 15:34:00,31.6,13.2,29.53,WNW,283,2.7,3.1,46,0.00,,CLR,0.00,VWS V14.01,2013-11-27 21:34:00,
2013-11-27 15:35:00,31.6,13.2,29.53,WNW,283,2.7,2.7,46,0.00,,CLR,0.00,VWS V14.01,2013-11-27 21:35:00,
2013-11-27 15:37:00,31.5,13.1,29.53,NW,324,3.6,4.0,46,0.00,,CLR,0.00,VWS V14.01,2013-11-27 21:37:00,
2013-11-27 15:38:00,30.9,12.6,29.53,NW,320,3.6,5.4,46,0.00,,CLR,0.00,VWS V14.01,2013-11-27 21:38:00,
2013-11-27 15:40:00,31.1,12.8,29.53,NW,320,2.7,3.6,46,0.00,,CLR,0.00,VWS V14.01,2013-11-27 21:40:00,
2013-11-27 15:41:00,30.7,12.4,29.53,WNW,291,4.9,4.9,46,0.00,,CLR,0.00,VWS V14.01,2013-11-27 21:41:00,
2013-11-27 15:42:00,30.6,12.3,29.53,WNW,302,5.4,5.4,46,0.00,,CLR,0.00,VWS V14.01,2013-11-27 21:42:00,
2013-11-27 15:43:00,30.4,12.1,29.53,WNW,291,3.6,5.4,46,0.00,,CLR,0.00,VWS V14.01,2013-11-27 21:43:00,
2013-11-27 15:45:00,30.2,11.9,29.53,WNW,301,3.6,4.9,46,0.00,,CLR,0.00,VWS V14.01,2013-11-27 21:45:00,
2013-11-27 15:46:00,30.2,11.9,29.53,WNW,292,3.6,4.0,46,0.00,,CLR,0.00,VWS V14.01,2013-11-27 21:46:00,
2013-11-27 15:48:00,30.2,11.9,29.53,West,275,4.0,5.4,46,0.00,,CLR,0.00,VWS V14.01,2013-11-27 21:48:00,
2013-11-27 15:49:00,30.2,11.9,29.53,West,275,4.0,4.0,46,0.00,,CLR,0.00,VWS V14.01,2013-11-27 21:49:00,
2013-11-27 15:50:00,29.8,11.6,29.53,WNW,292,4.9,5.8,46,0.00,,CLR,0.00,VWS V14.01,2013-11-27 21:50:00,
2013-11-27 15:51:00,30.0,11.8,29.53,WNW,286,4.5,4.9,46,0.00,,CLR,0.00,VWS V14.01,2013-11-27 21:51:00,
2013-11-27 15:52:00,30.0,11.8,29.53,West,274,4.0,5.4,46,0.00,,CLR,0.00,VWS V14.01,2013-11-27 21:52:00,
2013-11-27 15:53:00,30.0,11.8,29.53,West,275,4.0,5.4,46,0.00,,CLR,0.00,VWS V14.01,2013-11-27 21:53:00,
2013-11-27 15:54:00,29.8,11.6,29.53,West,275,4.0,5.4,46,0.00,,CLR,0.00,VWS V14.01,2013-11-27 21:54:00,
2013-11-27 15:55:00,29.8,11.6,29.53,West,274,4.9,4.9,46,0.00,,CLR,0.00,VWS V14.01,2013-11-27 21:55:00,
2013-11-27 15:56:00,29.8,11.6,29.53,West,275,3.6,4.0,46,0.00,,CLR,0.00,VWS V14.01,2013-11-27 21:56:00,
2013-11-27 15:59:00,29.8,11.6,29.53,WSW,241,5.4,5.4,46,0.00,,CLR,0.00,VWS V14.01,2013-11-27 21:59:00,
2013-11-27 16:00:00,29.8,11.6,29.53,WSW,241,2.7,5.4,46,0.00,,CLR,0.00,VWS V14.01,2013-11-27 22:00:00,
2013-11-27 16:01:00,29.7,11.4,29.53,WSW,241,2.7,3.1,46,0.00,,CLR,0.00,VWS V14.01,2013-11-27 22:01:00,
2013-11-27 16:05:00,29.7,11.4,29.53,West,261,3.1,3.6,46,0.00,,CLR,0.00,VWS V14.01,2013-11-27 22:05:00,
2013-11-27 16:06:00,29.7,11.4,29.53,West,261,3.1,4.0,46,0.00,,CLR,0.00,VWS V14.01,2013-11-27 22:06:00,
2013-11-27 16:07:00,29.7,11.4,29.53,West,261,3.1,4.0,46,0.00,,CLR,0.00,VWS V14.01,2013-11-27 22:07:00,
2013-11-27 16:10:00,29.5,11.3,29.53,West,261,3.1,3.1,46,0.00,,CLR,0.00,VWS V14.01,2013-11-27 22:10:00,
2013-11-27 16:12:00,29.5,8.1,29.53,West,261,3.1,3.6,40,0.00,,CLR,0.00,VWS V14.01,2013-11-27 22:12:00,
2013-11-27 16:13:00,29.5,8.1,29.53,West,260,3.6,4.0,40,0.00,,CLR,0.00,VWS V14.01,2013-11-27 22:13:00,
2013-11-27 16:14:00,29.5,8.1,29.53,WSW,248,4.9,5.8,40,0.00,,CLR,0.00,VWS V14.01,2013-11-27 22:14:00,
2013-11-27 16:16:00,29.3,8.0,29.53,WSW,247,4.0,5.4,40,0.00,,CLR,0.00,VWS V14.01,2013-11-27 22:16:00,
2013-11-27 16:17:00,29.1,7.8,29.53,WSW,247,2.7,3.1,40,0.00,,CLR,0.00,VWS V14.01,2013-11-27 22:17:00,
2013-11-27 16:18:00,29.1,7.8,29.53,WSW,247,4.9,4.9,40,0.00,,CLR,0.00,VWS V14.01,2013-11-27 22:18:00,
2013-11-27 16:19:00,28.9,7.7,29.53,WSW,243,6.7,6.7,40,0.00,,CLR,0.00,VWS V14.01,2013-11-27 22:19:00,
2013-11-27 16:20:00,28.9,7.7,29.53,WSW,244,4.0,6.7,40,0.00,,CLR,0.00,VWS V14.01,2013-11-27 22:20:00,
2013-11-27 16:21:00,28.8,7.5,29.53,WSW,244,4.0,4.0,40,0.00,,CLR,0.00,VWS V14.01,2013-11-27 22:21:00,
2013-11-27 16:22:00,28.6,7.3,29.53,WSW,244,3.1,3.1,40,0.00,,CLR,0.00,VWS V14.01,2013-11-27 22:22:00,
2013-11-27 16:23:00,28.6,7.3,29.53,WSW,244,4.0,4.0,40,0.00,,CLR,0.00,VWS V14.01,2013-11-27 22:23:00,
2013-11-27 16:24:00,28.6,7.3,29.53,WSW,243,4.9,4.9,40,0.00,,CLR,0.00,VWS V14.01,2013-11-27 22:24:00,
2013-11-27 16:25:00,28.4,8.2,29.53,WSW,243,3.1,4.9,42,0.00,,CLR,0.00,VWS V14.01,2013-11-27 22:25:00,
2013-11-27 16:27:00,28.2,8.1,29.53,WSW,248,3.1,4.0,42,0.00,,CLR,0.00,VWS V14.01,2013-11-27 22:27:00,
2013-11-27 16:28:00,28.0,7.9,29.53,WSW,248,2.7,4.0,42,0.00,,CLR,0.00,VWS V14.01,2013-11-27 22:28:00,
2013-11-27 16:30:00,27.9,7.8,29.53,WSW,248,3.1,3.1,42,0.00,,CLR,0.00,VWS V14.01,2013-11-27 22:30:00,
2013-11-27 16:31:00,27.7,7.6,29.53,WSW,248,2.7,3.1,42,0.00,,CLR,0.00,VWS V14.01,2013-11-27 22:31:00,
2013-11-27 16:33:00,27.5,7.4,29.53,WSW,248,3.1,3.1,42,0.00,,CLR,0.00,VWS V14.01,2013-11-27 22:33:00,
2013-11-27 16:34:00,27.1,7.1,29.53,WSW,248,3.1,3.1,42,0.00,,CLR,0.00,VWS V14.01,2013-11-27 22:34:00,
2013-11-27 16:35:00,27.0,6.9,29.53,WSW,248,3.1,3.1,42,0.00,,CLR,0.00,VWS V14.01,2013-11-27 22:35:00,
2013-11-27 16:36:00,27.0,6.9,29.53,WSW,248,2.7,3.6,42,0.00,,CLR,0.00,VWS V14.01,2013-11-27 22:36:00,
2013-11-27 16:38:00,26.4,6.4,29.53,WSW,246,3.6,4.0,42,0.00,,CLR,0.00,VWS V14.01,2013-11-27 22:38:00,
2013-11-27 16:40:00,26.2,6.3,29.53,WSW,246,2.7,3.6,42,0.00,,CLR,0.00,VWS V14.01,2013-11-27 22:40:00,
2013-11-27 16:42:00,25.7,5.8,29.53,WSW,246,2.7,3.1,42,0.00,,CLR,0.00,VWS V14.01,2013-11-27 22:42:00,
2013-11-27 16:43:00,25.5,5.6,29.53,WSW,246,2.7,3.6,42,0.00,,CLR,0.00,VWS V14.01,2013-11-27 22:43:00,
2013-11-27 16:45:00,25.0,5.1,29.53,WSW,247,2.7,3.6,42,0.00,,CLR,0.00,VWS V14.01,2013-11-27 22:45:00,
2013-11-27 16:48:00,24.4,5.7,29.53,WSW,247,3.6,3.6,44,0.00,,CLR,0.00,VWS V14.01,2013-11-27 22:48:00,
2013-11-27 16:49:00,24.4,5.7,29.53,WSW,246,4.0,4.0,44,0.00,,CLR,0.00,VWS V14.01,2013-11-27 22:49:00,
2013-11-27 16:51:00,24.1,5.3,29.53,WSW,246,3.6,3.6,44,0.00,,CLR,0.00,VWS V14.01,2013-11-27 22:51:00,
2013-11-27 16:54:00,23.9,5.2,29.53,WSW,246,3.1,4.0,44,0.00,,CLR,0.00,VWS V14.01,2013-11-27 22:54:00,
2013-11-27 16:55:00,23.7,5.0,29.53,WSW,246,2.2,2.7,44,0.00,,CLR,0.00,VWS V14.01,2013-11-27 22:55:00,
2013-11-27 16:56:00,23.7,5.0,29.53,WSW,246,2.7,2.7,44,0.00,,CLR,0.00,VWS V14.01,2013-11-27 22:56:00,
2013-11-27 16:57:00,23.5,4.8,29.53,WSW,246,3.1,3.1,44,0.00,,CLR,0.00,VWS V14.01,2013-11-27 22:57:00,
2013-11-27 16:59:00,23.4,4.7,29.53,WSW,246,2.7,2.7,44,0.00,,CLR,0.00,VWS V14.01,2013-11-27 22:59:00,
2013-11-27 17:00:00,23.2,4.5,29.53,WSW,246,2.2,2.7,44,0.00,,CLR,0.00,VWS V14.01,2013-11-27 23:00:00,
2013-11-27 17:01:00,23.2,4.5,29.53,WSW,247,2.2,2.7,44,0.00,,CLR,0.00,VWS V14.01,2013-11-27 23:01:00,
2013-11-27 17:02:00,23.0,4.3,29.53,WSW,247,2.7,2.7,44,0.00,,CLR,0.00,VWS V14.01,2013-11-27 23:02:00,
2013-11-27 17:05:00,22.8,4.2,29.53,WSW,246,3.6,4.0,44,0.00,,CLR,0.00,VWS V14.01,2013-11-27 23:05:00,
2013-11-27 17:06:00,22.8,4.2,29.53,WSW,246,3.6,4.0,44,0.00,,CLR,0.00,VWS V14.01,2013-11-27 23:06:00,
2013-11-27 17:07:00,22.8,4.2,29.53,WSW,246,3.1,3.1,44,0.00,,CLR,0.00,VWS V14.01,2013-11-27 23:07:00,
2013-11-27 17:08:00,22.6,4.0,29.53,WSW,246,3.1,3.1,44,0.00,,CLR,0.00,VWS V14.01,2013-11-27 23:08:00,
2013-11-27 17:10:00,22.6,4.0,29.53,WSW,246,2.7,2.7,44,0.00,,CLR,0.00,VWS V14.01,2013-11-27 23:10:00,
2013-11-27 17:12:00,22.6,4.0,29.53,WSW,246,2.2,2.2,44,0.00,,CLR,0.00,VWS V14.01,2013-11-27 23:12:00,
2013-11-27 17:13:00,22.6,4.0,29.53,WSW,246,2.2,2.2,44,0.00,,CLR,0.00,VWS V14.01,2013-11-27 23:13:00,
2013-11-27 17:15:00,22.6,4.0,29.53,WSW,246,2.2,2.7,44,0.00,,CLR,0.00,VWS V14.01,2013-11-27 23:15:00,
2013-11-27 17:16:00,22.6,4.0,29.53,WSW,246,2.7,2.7,44,0.00,,CLR,0.00,VWS V14.01,2013-11-27 23:16:00,
2013-11-27 17:18:00,22.6,4.0,29.53,WSW,246,2.2,2.2,44,0.00,,CLR,0.00,VWS V14.01,2013-11-27 23:18:00,
2013-11-27 17:19:00,22.8,4.2,29.53,WSW,246,2.7,2.7,44,0.00,,CLR,0.00,VWS V14.01,2013-11-27 23:19:00,
2013-11-27 17:20:00,22.8,4.2,29.53,WSW,246,2.2,2.7,44,0.00,,CLR,0.00,VWS V14.01,2013-11-27 23:20:00,
2013-11-27 17:21:00,22.8,4.2,29.53,WSW,246,2.7,2.7,44,0.00,,CLR,0.00,VWS V14.01,2013-11-27 23:21:00,
2013-11-27 17:22:00,22.8,4.2,29.53,WSW,246,2.7,2.7,44,0.00,,CLR,0.00,VWS V14.01,2013-11-27 23:22:00,
2013-11-27 17:23:00,22.8,4.2,29.53,WSW,246,0.0,2.2,44,0.00,,CLR,0.00,VWS V14.01,2013-11-27 23:23:00,
2013-11-27 17:26:00,22.8,4.2,29.53,WSW,246,0.0,2.2,44,0.00,,CLR,0.00,VWS V14.01,2013-11-27 23:26:00,
2013-11-27 17:27:00,22.8,4.2,29.53,WSW,246,2.7,2.7,44,0.00,,CLR,0.00,VWS V14.01,2013-11-27 23:27:00,
2013-11-27 17:28:00,22.8,4.2,29.53,WSW,246,2.2,2.7,44,0.00,,CLR,0.00,VWS V14.01,2013-11-27 23:28:00,
2013-11-27 17:31:00,22.8,4.2,29.53,WSW,246,3.1,3.1,44,0.00,,CLR,0.00,VWS V14.01,2013-11-27 23:31:00,
2013-11-27 17:32:00,22.8,4.2,29.53,WSW,246,3.1,3.1,44,0.00,,CLR,0.00,VWS V14.01,2013-11-27 23:32:00,
2013-11-27 17:33:00,22.8,4.2,29.53,WSW,246,2.7,3.1,44,0.00,,CLR,0.00,VWS V14.01,2013-11-27 23:33:00,
2013-11-27 17:37:00,22.8,4.2,29.53,WSW,246,2.7,3.1,44,0.00,,CLR,0.00,VWS V14.01,2013-11-27 23:37:00,
2013-11-27 17:38:00,22.6,4.0,29.53,WSW,246,3.1,3.1,44,0.00,,CLR,0.00,VWS V14.01,2013-11-27 23:38:00,
2013-11-27 17:39:00,22.6,4.0,29.53,WSW,246,2.7,3.1,44,0.00,,CLR,0.00,VWS V14.01,2013-11-27 23:39:00,
2013-11-27 17:41:00,22.6,4.0,29.53,WSW,246,2.2,2.2,44,0.00,,CLR,0.00,VWS V14.01,2013-11-27 23:41:00,
2013-11-27 17:42:00,22.5,3.9,29.53,WSW,246,2.2,2.2,44,0.00,,CLR,0.00,VWS V14.01,2013-11-27 23:42:00,
2013-11-27 17:43:00,22.5,3.9,29.53,WSW,246,0.0,2.2,44,0.00,,CLR,0.00,VWS V14.01,2013-11-27 23:43:00,
2013-11-27 17:44:00,22.5,3.9,29.53,WSW,246,2.2,2.2,44,0.00,,CLR,0.00,VWS V14.01,2013-11-27 23:44:00,
2013-11-27 17:46:00,22.5,3.9,29.53,WSW,246,0.0,2.2,44,0.00,,CLR,0.00,VWS V14.01,2013-11-27 23:46:00,
2013-11-27 17:48:00,22.5,3.9,29.53,WSW,246,0.0,0.0,44,0.00,,CLR,0.00,VWS V14.01,2013-11-27 23:48:00,
2013-11-27 17:50:00,22.5,3.9,29.53,WSW,246,2.7,2.7,44,0.00,,CLR,0.00,VWS V14.01,2013-11-27 23:50:00,
2013-11-27 17:51:00,22.5,3.9,29.53,WSW,246,2.2,2.7,44,0.00,,CLR,0.00,VWS V14.01,2013-11-27 23:51:00,
2013-11-27 17:52:00,22.6,4.0,29.53,WSW,246,2.7,2.7,44,0.00,,CLR,0.00,VWS V14.01,2013-11-27 23:52:00,
2013-11-27 17:53:00,22.6,4.0,29.53,WSW,246,2.2,2.2,44,0.00,,CLR,0.00,VWS V14.01,2013-11-27 23:53:00,
2013-11-27 17:56:00,22.8,4.2,29.53,WSW,246,2.2,2.7,44,0.00,,CLR,0.00,VWS V14.01,2013-11-27 23:56:00,
2013-11-27 17:57:00,22.8,4.2,29.53,WSW,246,2.7,2.7,44,0.00,,CLR,0.00,VWS V14.01,2013-11-27 23:57:00,
2013-11-27 17:58:00,22.6,4.0,29.53,WSW,246,2.2,2.7,44,0.00,,CLR,0.00,VWS V14.01,2013-11-27 23:58:00,
2013-11-27 18:00:00,22.5,3.9,29.53,WSW,246,2.2,2.2,44,0.00,,CLR,0.00,VWS V14.01,2013-11-28 00:00:00,
2013-11-27 18:01:00,22.5,3.9,29.53,WSW,246,2.2,2.2,44,0.00,,CLR,0.00,VWS V14.01,2013-11-28 00:01:00,
2013-11-27 18:02:00,22.5,3.9,29.53,WSW,246,0.0,0.0,44,0.00,,CLR,0.00,VWS V14.01,2013-11-28 00:02:00,
2013-11-27 18:03:00,22.5,3.9,29.53,WSW,246,2.2,2.2,44,0.00,,CLR,0.00,VWS V14.01,2013-11-28 00:03:00,
2013-11-27 18:05:00,22.3,3.7,29.53,WSW,246,2.2,2.7,44,0.00,,CLR,0.00,VWS V14.01,2013-11-28 00:05:00,
2013-11-27 18:06:00,22.3,3.7,29.53,WSW,246,2.7,2.7,44,0.00,,CLR,0.00,VWS V14.01,2013-11-28 00:06:00,
2013-11-27 18:08:00,22.5,3.9,29.53,WSW,246,2.7,2.7,44,0.00,,CLR,0.00,VWS V14.01,2013-11-28 00:08:00,
2013-11-27 18:09:00,22.5,3.9,29.53,WSW,246,2.7,2.7,44,0.00,,CLR,0.00,VWS V14.01,2013-11-28 00:09:00,
2013-11-27 18:10:00,22.5,3.9,29.53,WSW,246,2.7,2.7,44,0.00,,CLR,0.00,VWS V14.01,2013-11-28 00:10:00,
2013-11-27 18:12:00,22.3,3.7,29.53,WSW,246,3.1,3.1,44,0.00,,CLR,0.00,VWS V14.01,2013-11-28 00:12:00,
2013-11-27 18:13:00,22.3,3.7,29.53,WSW,246,3.1,3.1,44,0.00,,CLR,0.00,VWS V14.01,2013-11-28 00:13:00,
2013-11-27 18:14:00,22.3,3.7,29.53,WSW,246,2.7,3.1,44,0.00,,CLR,0.00,VWS V14.01,2013-11-28 00:14:00,
2013-11-27 18:15:00,22.3,3.7,29.53,WSW,246,3.1,3.6,44,0.00,,CLR,0.00,VWS V14.01,2013-11-28 00:15:00,
2013-11-27 18:18:00,22.3,3.7,29.53,WSW,246,2.7,3.6,44,0.00,,CLR,0.00,VWS V14.01,2013-11-28 00:18:00,
2013-11-27 18:20:00,22.1,3.5,29.53,WSW,246,2.7,3.1,44,0.00,,CLR,0.00,VWS V14.01,2013-11-28 00:20:00,
2013-11-27 18:21:00,22.1,3.5,29.53,WSW,246,3.1,3.1,44,0.00,,CLR,0.00,VWS V14.01,2013-11-28 00:21:00,
2013-11-27 18:25:00,22.1,3.5,29.53,WSW,246,3.1,3.1,44,0.00,,CLR,0.00,VWS V14.01,2013-11-28 00:25:00,
2013-11-27 18:26:00,22.1,3.5,29.53,WSW,246,3.6,3.6,44,0.00,,CLR,0.00,VWS V14.01,2013-11-28 00:26:00,
2013-11-27 18:30:00,22.1,3.5,29.53,WSW,245,3.6,3.6,44,0.00,,CLR,0.00,VWS V14.01,2013-11-28 00:30:00,
2013-11-27 18:31:00,22.1,3.5,29.53,WSW,245,3.6,3.6,44,0.00,,CLR,0.00,VWS V14.01,2013-11-28 00:31:00,
2013-11-27 18:32:00,22.1,3.5,29.53,WSW,245,3.1,3.6,44,0.00,,CLR,0.00,VWS V14.01,2013-11-28 00:32:00,
2013-11-27 18:33:00,22.1,3.5,29.53,WSW,245,2.7,3.1,44,0.00,,CLR,0.00,VWS V14.01,2013-11-28 00:33:00,
2013-11-27 18:35:00,22.1,3.5,29.53,WSW,245,3.1,3.1,44,0.00,,CLR,0.00,VWS V14.01,2013-11-28 00:35:00,
2013-11-27 18:36:00,22.1,3.5,29.53,WSW,245,3.1,3.1,44,0.00,,CLR,0.00,VWS V14.01,2013-11-28 00:36:00,
2013-11-27 18:37:00,21.9,3.4,29.53,WSW,245,3.1,3.1,44,0.00,,CLR,0.00,VWS V14.01,2013-11-28 00:37:00,
2013-11-27 18:39:00,21.9,3.4,29.53,WSW,245,3.6,3.6,44,0.00,,CLR,0.00,VWS V14.01,2013-11-28 00:39:00,
2013-11-27 18:41:00,21.9,3.4,29.50,WSW,245,3.1,3.1,44,0.00,,CLR,0.00,VWS V14.01,2013-11-28 00:41:00,
2013-11-27 18:42:00,21.9,3.4,29.50,WSW,245,3.1,3.1,44,0.00,,CLR,0.00,VWS V14.01,2013-11-28 00:42:00,
2013-11-27 18:43:00,21.9,3.4,29.50,WSW,245,3.1,3.6,44,0.00,,CLR,0.00,VWS V14.01,2013-11-28 00:43:00,
2013-11-27 18:44:00,21.9,3.4,29.50,WSW,245,3.1,3.1,44,0.00,,CLR,0.00,VWS V14.01,2013-11-28 00:44:00,
2013-11-27 18:45:00,21.9,3.4,29.50,WSW,245,3.6,3.6,44,0.00,,CLR,0.00,VWS V14.01,2013-11-28 00:45:00,
2013-11-27 18:47:00,21.9,3.4,29.50,WSW,244,3.1,3.1,44,0.00,,CLR,0.00,VWS V14.01,2013-11-28 00:47:00,
2013-11-27 18:48:00,21.9,3.4,29.50,WSW,244,3.6,3.6,44,0.00,,CLR,0.00,VWS V14.01,2013-11-28 00:48:00,
2013-11-27 18:50:00,21.7,3.2,29.50,WSW,244,3.1,3.6,44,0.00,,CLR,0.00,VWS V14.01,2013-11-28 00:50:00,
2013-11-27 18:53:00,21.7,3.2,29.50,WSW,243,3.1,3.6,44,0.00,,CLR,0.00,VWS V14.01,2013-11-28 00:53:00,
2013-11-27 18:54:00,21.7,3.2,29.50,WSW,243,3.6,3.6,44,0.00,,CLR,0.00,VWS V14.01,2013-11-28 00:54:00,
2013-11-27 18:55:00,21.7,3.2,29.50,WSW,244,3.6,3.6,44,0.00,,CLR,0.00,VWS V14.01,2013-11-28 00:55:00,
2013-11-27 18:58:00,21.6,3.0,29.50,WSW,243,3.6,4.0,44,0.00,,CLR,0.00,VWS V14.01,2013-11-28 00:58:00,
2013-11-27 18:59:00,21.6,3.0,29.50,WSW,241,4.9,4.9,44,0.00,,CLR,0.00,VWS V14.01,2013-11-28 00:59:00,
2013-11-27 19:00:00,21.6,3.0,29.50,WSW,241,3.1,4.9,44,0.00,,CLR,0.00,VWS V14.01,2013-11-28 01:00:00,
2013-11-27 19:01:00,21.6,3.0,29.50,WSW,241,3.1,3.1,44,0.00,,CLR,0.00,VWS V14.01,2013-11-28 01:01:00,
2013-11-27 19:04:00,21.6,3.0,29.50,SW,224,4.0,4.9,44,0.00,,CLR,0.00,VWS V14.01,2013-11-28 01:04:00,
2013-11-27 19:05:00,21.6,3.0,29.50,SW,223,3.6,4.0,44,0.00,,CLR,0.00,VWS V14.01,2013-11-28 01:05:00,
2013-11-27 19:06:00,21.6,3.0,29.50,SW,223,3.1,4.0,44,0.00,,CLR,0.00,VWS V14.01,2013-11-28 01:06:00,
2013-11-27 19:07:00,21.6,3.0,29.50,SW,216,3.6,4.0,44,0.00,,CLR,0.00,VWS V14.01,2013-11-28 01:07:00,
2013-11-27 19:10:00,21.6,3.0,29.50,SSW,200,3.6,4.0,44,0.00,,CLR,0.00,VWS V14.01,2013-11-28 01:10:00,
2013-11-27 19:11:00,21.6,3.0,29.50,SSW,200,3.6,3.6,44,0.00,,CLR,0.00,VWS V14.01,2013-11-28 01:11:00,
2013-11-27 19:12:00,21.6,3.0,29.50,SSW,200,3.1,3.6,44,0.00,,CLR,0.00,VWS V14.01,2013-11-28 01:12:00,
2013-11-27 19:15:00,21.6,3.0,29.50,SSW,200,3.6,3.6,44,0.00,,CLR,0.00,VWS V14.01,2013-11-28 01:15:00,
2013-11-27 19:16:00,21.6,3.0,29.50,SSW,200,3.1,3.6,44,0.00,,CLR,0.00,VWS V14.01,2013-11-28 01:16:00,
2013-11-27 19:17:00,21.6,3.0,29.50,SSW,200,4.0,4.0,44,0.00,,CLR,0.00,VWS V14.01,2013-11-28 01:17:00,
2013-11-27 19:18:00,21.6,3.0,29.50,SSW,200,3.6,3.6,44,0.00,,CLR,0.00,VWS V14.01,2013-11-28 01:18:00,
2013-11-27 19:21:00,21.7,3.2,29.50,SSW,200,2.7,3.1,44,0.00,,CLR,0.00,VWS V14.01,2013-11-28 01:21:00,
2013-11-27 19:22:00,21.7,3.2,29.50,SSW,200,2.7,3.1,44,0.00,,CLR,0.00,VWS V14.01,2013-11-28 01:22:00,
2013-11-27 19:24:00,21.7,3.2,29.50,SSW,200,3.6,3.6,44,0.00,,CLR,0.00,VWS V14.01,2013-11-28 01:24:00,
2013-11-27 19:27:00,21.7,3.2,29.50,SSW,200,4.0,4.0,44,0.00,,CLR,0.00,VWS V14.01,2013-11-28 01:27:00,
2013-11-27 19:28:00,21.7,3.2,29.50,SSW,200,3.1,4.0,44,0.00,,CLR,0.00,VWS V14.01,2013-11-28 01:28:00,
2013-11-27 19:29:00,21.7,3.2,29.50,SSW,200,4.0,4.0,44,0.00,,CLR,0.00,VWS V14.01,2013-11-28 01:29:00,
2013-11-27 19:31:00,21.6,3.0,29.50,SSW,200,3.1,3.6,44,0.00,,CLR,0.00,VWS V14.01,2013-11-28 01:31:00,
2013-11-27 19:33:00,21.6,3.0,29.50,SSW,200,3.6,3.6,44,0.00,,CLR,0.00,VWS V14.01,2013-11-28 01:33:00,
2013-11-27 19:35:00,21.7,3.2,29.50,SSW,200,3.6,4.0,44,0.00,,CLR,0.00,VWS V14.01,2013-11-28 01:35:00,
2013-11-27 19:36:00,21.7,3.2,29.50,SSW,200,3.6,3.6,44,0.00,,CLR,0.00,VWS V14.01,2013-11-28 01:36:00,
2013-11-27 19:37:00,21.7,3.2,29.50,SSW,200,3.6,3.6,44,0.00,,CLR,0.00,VWS V14.01,2013-11-28 01:37:00,
2013-11-27 19:40:00,21.6,3.0,29.47,SSW,198,4.0,4.0,44,0.00,,CLR,0.00,VWS V14.01,2013-11-28 01:40:00,
2013-11-27 19:41:00,21.6,3.0,29.47,SSW,196,4.5,4.5,44,0.00,,CLR,0.00,VWS V14.01,2013-11-28 01:41:00,
2013-11-27 19:42:00,21.6,3.0,29.47,SSW,196,4.0,4.0,44,0.00,,CLR,0.00,VWS V14.01,2013-11-28 01:42:00,
2013-11-27 19:43:00,21.4,2.9,29.47,SSW,196,4.9,4.9,44,0.00,,CLR,0.00,VWS V14.01,2013-11-28 01:43:00,
2013-11-27 19:46:00,21.4,2.9,29.47,South,189,5.8,5.8,44,0.00,,CLR,0.00,VWS V14.01,2013-11-28 01:46:00,
2013-11-27 19:47:00,21.6,3.0,29.47,South,180,5.8,6.3,44,0.00,,CLR,0.00,VWS V14.01,2013-11-28 01:47:00,
2013-11-27 19:48:00,21.6,3.0,29.47,South,180,4.0,6.3,44,0.00,,CLR,0.00,VWS V14.01,2013-11-28 01:48:00,
2013-11-27 19:52:00,21.7,3.2,29.47,South,180,4.0,4.0,44,0.00,,CLR,0.00,VWS V14.01,2013-11-28 01:52:00,
2013-11-27 19:53:00,21.7,3.2,29.47,South,180,4.0,4.0,44,0.00,,CLR,0.00,VWS V14.01,2013-11-28 01:53:00,
2013-11-27 19:54:00,21.7,3.2,29.47,South,180,4.9,5.4,44,0.00,,CLR,0.00,VWS V14.01,2013-11-28 01:54:00,
2013-11-27 19:55:00,21.9,3.4,29.47,South,179,4.0,5.8,44,0.00,,CLR,0.00,VWS V14.01,2013-11-28 01:55:00,
2013-11-27 19:57:00,21.9,3.4,29.47,South,179,3.1,3.6,44,0.00,,CLR,0.00,VWS V14.01,2013-11-28 01:57:00,
2013-11-27 19:58:00,21.9,3.4,29.47,South,179,3.6,3.6,44,0.00,,CLR,0.00,VWS V14.01,2013-11-28 01:58:00,
2013-11-27 19:59:00,21.9,3.4,29.47,South,179,2.7,3.6,44,0.00,,CLR,0.00,VWS V14.01,2013-11-28 01:59:00,
2013-11-27 20:00:00,21.9,3.4,29.47,South,179,3.6,3.6,44,0.00,,CLR,0.00,VWS V14.01,2013-11-28 02:00:00,
2013-11-27 20:01:00,21.9,3.4,29.47,South,179,4.0,4.5,44,0.00,,CLR,0.00,VWS V14.01,2013-11-28 02:01:00,
2013-11-27 20:03:00,21.9,3.4,29.47,South,179,4.9,4.9,44,0.00,,CLR,0.00,VWS V14.01,2013-11-28 02:03:00,
2013-11-27 20:04:00,21.9,3.4,29.47,South,179,4.5,4.5,44,0.00,,CLR,0.00,VWS V14.01,2013-11-28 02:04:00,
2013-11-27 20:05:00,21.9,3.4,29.47,South,179,2.7,4.0,44,0.00,,CLR,0.00,VWS V14.01,2013-11-28 02:05:00,
2013-11-27 20:07:00,22.1,3.5,29.47,South,179,4.5,4.5,44,0.00,,CLR,0.00,VWS V14.01,2013-11-28 02:07:00,
2013-11-27 20:08:00,22.1,3.5,29.47,South,179,4.0,4.0,44,0.00,,CLR,0.00,VWS V14.01,2013-11-28 02:08:00,
2013-11-27 20:10:00,22.1,3.5,29.50,South,180,4.0,5.4,44,0.00,,CLR,0.00,VWS V14.01,2013-11-28 02:10:00,
2013-11-27 20:11:00,22.1,3.5,29.50,South,175,6.3,6.3,44,0.00,,CLR,0.00,VWS V14.01,2013-11-28 02:11:00,
2013-11-27 20:12:00,22.1,3.5,29.50,South,175,2.7,5.8,44,0.00,,CLR,0.00,VWS V14.01,2013-11-28 02:12:00,
2013-11-27 20:13:00,22.1,3.5,29.50,South,175,3.1,4.0,44,0.00,,CLR,0.00,VWS V14.01,2013-11-28 02:13:00,
2013-11-27 20:14:00,22.1,3.5,29.50,South,175,5.8,5.8,44,0.00,,CLR,0.00,VWS V14.01,2013-11-28 02:14:00,
2013-11-27 20:15:00,22.1,3.5,29.50,South,175,7.2,7.2,44,0.00,,CLR,0.00,VWS V14.01,2013-11-28 02:15:00,
2013-11-27 20:17:00,22.3,3.7,29.50,South,177,6.3,6.3,44,0.00,,CLR,0.00,VWS V14.01,2013-11-28 02:17:00,
2013-11-27 20:18:00,22.3,3.7,29.50,South,177,5.8,5.8,44,0.00,,CLR,0.00,VWS V14.01,2013-11-28 02:18:00,
2013-11-27 20:19:00,22.3,3.7,29.50,South,177,5.4,5.4,44,0.00,,CLR,0.00,VWS V14.01,2013-11-28 02:19:00,
2013-11-27 20:20:00,22.3,3.7,29.50,South,177,3.6,5.4,44,0.00,,CLR,0.00,VWS V14.01,2013-11-28 02:20:00,
2013-11-27 20:24:00,22.5,3.9,29.50,South,176,3.1,3.1,44,0.00,,CLR,0.00,VWS V14.01,2013-11-28 02:24:00,
2013-11-27 20:25:00,22.5,3.9,29.47,South,177,3.6,5.4,44,0.00,,CLR,0.00,VWS V14.01,2013-11-28 02:25:00,
2013-11-27 20:27:00,22.6,4.0,29.47,South,176,5.4,5.4,44,0.00,,CLR,0.00,VWS V14.01,2013-11-28 02:27:00,
2013-11-27 20:30:00,22.6,4.0,29.47,South,175,6.3,6.3,44,0.00,,CLR,0.00,VWS V14.01,2013-11-28 02:30:00,
2013-11-27 20:31:00,22.5,3.9,29.47,South,174,3.1,6.3,44,0.00,,CLR,0.00,VWS V14.01,2013-11-28 02:31:00,
2013-11-27 20:33:00,22.6,4.0,29.47,South,174,4.0,4.9,44,0.00,,CLR,0.00,VWS V14.01,2013-11-28 02:33:00,
2013-11-27 20:35:00,22.5,3.9,29.47,South,174,4.0,5.4,44,0.00,,CLR,0.00,VWS V14.01,2013-11-28 02:35:00,
2013-11-27 20:37:00,22.5,3.9,29.47,South,173,4.0,5.8,44,0.00,,CLR,0.00,VWS V14.01,2013-11-28 02:37:00,
2013-11-27 20:38:00,22.5,3.9,29.47,South,173,3.6,6.3,44,0.00,,CLR,0.00,VWS V14.01,2013-11-28 02:38:00,
2013-11-27 20:40:00,22.6,4.0,29.47,South,172,6.3,6.3,44,0.00,,CLR,0.00,VWS V14.01,2013-11-28 02:40:00,
2013-11-27 20:41:00,22.6,4.0,29.47,South,172,4.0,4.0,44,0.00,,CLR,0.00,VWS V14.01,2013-11-28 02:41:00,
2013-11-27 20:43:00,22.6,4.0,29.47,SSE,168,5.4,8.1,44,0.00,,CLR,0.00,VWS V14.01,2013-11-28 02:43:00,
2013-11-27 20:44:00,22.8,4.2,29.47,South,169,4.0,5.8,44,0.00,,CLR,0.00,VWS V14.01,2013-11-28 02:44:00,
2013-11-27 20:47:00,22.8,4.2,29.47,SSE,168,5.4,5.4,44,0.00,,CLR,0.00,VWS V14.01,2013-11-28 02:47:00,
2013-11-27 20:48:00,22.8,4.2,29.47,SSE,168,3.1,5.4,44,0.00,,CLR,0.00,VWS V14.01,2013-11-28 02:48:00,
2013-11-27 20:49:00,22.8,4.2,29.47,SSE,168,4.9,4.9,44,0.00,,CLR,0.00,VWS V14.01,2013-11-28 02:49:00,
2013-11-27 20:50:00,22.8,4.2,29.47,South,170,6.3,6.3,44,0.00,,CLR,0.00,VWS V14.01,2013-11-28 02:50:00,
2013-11-27 20:53:00,22.6,4.0,29.47,South,170,6.3,6.3,44,0.00,,CLR,0.00,VWS V14.01,2013-11-28 02:53:00,
2013-11-27 20:54:00,22.6,4.0,29.47,South,170,5.8,6.3,44,0.00,,CLR,0.00,VWS V14.01,2013-11-28 02:54:00,
2013-11-27 20:55:00,22.6,4.0,29.50,South,170,3.1,4.9,44,0.00,,CLR,0.00,VWS V14.01,2013-11-28 02:55:00,
2013-11-27 20:56:00,22.6,4.0,29.50,South,169,3.6,4.9,44,0.00,,CLR,0.00,VWS V14.01,2013-11-28 02:56:00,
2013-11-27 20:59:00,22.3,3.7,29.50,South,170,4.0,4.0,44,0.00,,CLR,0.00,VWS V14.01,2013-11-28 02:59:00,
2013-11-27 21:00:00,22.3,3.7,29.50,South,170,3.6,4.9,44,0.00,,CLR,0.00,VWS V14.01,2013-11-28 03:00:00,
2013-11-27 21:01:00,22.3,3.7,29.50,South,170,5.8,5.8,44,0.00,,CLR,0.00,VWS V14.01,2013-11-28 03:01:00,
2013-11-27 21:04:00,22.1,3.5,29.50,South,170,4.5,4.9,44,0.00,,CLR,0.00,VWS V14.01,2013-11-28 03:04:00,
2013-11-27 21:05:00,22.1,3.5,29.50,South,170,3.6,4.9,44,0.00,,CLR,0.00,VWS V14.01,2013-11-28 03:05:00,
2013-11-27 21:06:00,21.9,3.4,29.50,South,170,3.6,4.9,44,0.00,,CLR,0.00,VWS V14.01,2013-11-28 03:06:00,
2013-11-27 21:07:00,21.9,3.4,29.50,South,170,4.9,4.9,44,0.00,,CLR,0.00,VWS V14.01,2013-11-28 03:07:00,
2013-11-27 21:08:00,21.9,3.4,29.50,South,170,5.8,5.8,44,0.00,,CLR,0.00,VWS V14.01,2013-11-28 03:08:00,
2013-11-27 21:09:00,21.9,3.4,29.50,South,170,4.0,4.9,44,0.00,,CLR,0.00,VWS V14.01,2013-11-28 03:09:00,
2013-11-27 21:10:00,21.9,3.4,29.50,South,170,2.7,4.0,44,0.00,,CLR,0.00,VWS V14.01,2013-11-28 03:10:00,
2013-11-27 21:11:00,21.9,3.4,29.50,South,170,3.6,3.6,44,0.00,,CLR,0.00,VWS V14.01,2013-11-28 03:11:00,
2013-11-27 21:12:00,21.9,3.4,29.50,South,170,4.0,4.0,44,0.00,,CLR,0.00,VWS V14.01,2013-11-28 03:12:00,
2013-11-27 21:13:00,21.9,3.4,29.50,South,170,4.9,4.9,44,0.00,,CLR,0.00,VWS V14.01,2013-11-28 03:13:00,
2013-11-27 21:14:00,21.7,3.2,29.50,South,170,6.3,6.3,44,0.00,,CLR,0.00,VWS V14.01,2013-11-28 03:14:00,
2013-11-27 21:15:00,21.9,3.4,29.50,South,171,5.4,5.8,44,0.00,,CLR,0.00,VWS V14.01,2013-11-28 03:15:00,
2013-11-27 21:16:00,21.9,3.4,29.50,South,170,4.0,4.0,44,0.00,,CLR,0.00,VWS V14.01,2013-11-28 03:16:00,
2013-11-27 21:17:00,21.9,3.4,29.50,South,171,4.0,4.9,44,0.00,,CLR,0.00,VWS V14.01,2013-11-28 03:17:00,
2013-11-27 21:19:00,21.9,3.4,29.50,South,171,5.4,5.8,44,0.00,,CLR,0.00,VWS V14.01,2013-11-28 03:19:00,
2013-11-27 21:21:00,21.7,3.2,29.50,South,171,4.0,4.0,44,0.00,,CLR,0.00,VWS V14.01,2013-11-28 03:21:00,
2013-11-27 21:22:00,21.7,3.2,29.50,South,171,3.1,4.0,44,0.00,,CLR,0.00,VWS V14.01,2013-11-28 03:22:00,
2013-11-27 21:24:00,21.7,3.2,29.50,South,171,3.6,3.6,44,0.00,,CLR,0.00,VWS V14.01,2013-11-28 03:24:00,
2013-11-27 21:26:00,21.6,3.0,29.50,South,171,3.6,3.6,44,0.00,,CLR,0.00,VWS V14.01,2013-11-28 03:26:00,
2013-11-27 21:27:00,21.6,3.0,29.50,South,171,4.9,4.9,44,0.00,,CLR,0.00,VWS V14.01,2013-11-28 03:27:00,
2013-11-27 21:28:00,21.6,3.0,29.50,South,172,4.9,5.4,44,0.00,,CLR,0.00,VWS V14.01,2013-11-28 03:28:00,
2013-11-27 21:29:00,21.6,3.0,29.50,South,172,4.0,5.4,44,0.00,,CLR,0.00,VWS V14.01,2013-11-28 03:29:00,
2013-11-27 21:30:00,21.6,3.0,29.50,South,172,4.9,5.4,44,0.00,,CLR,0.00,VWS V14.01,2013-11-28 03:30:00,
2013-11-27 21:31:00,21.6,3.0,29.50,South,172,3.1,4.9,44,0.00,,CLR,0.00,VWS V14.01,2013-11-28 03:31:00,
2013-11-27 21:32:00,21.6,3.0,29.50,South,173,4.9,5.4,44,0.00,,CLR,0.00,VWS V14.01,2013-11-28 03:32:00,
2013-11-27 21:34:00,21.6,3.0,29.50,South,173,3.6,5.8,44,0.00,,CLR,0.00,VWS V14.01,2013-11-28 03:34:00,
2013-11-27 21:35:00,21.6,3.0,29.50,South,173,3.6,5.8,44,0.00,,CLR,0.00,VWS V14.01,2013-11-28 03:35:00,
2013-11-27 21:37:00,21.6,3.0,29.50,South,173,4.9,6.7,44,0.00,,CLR,0.00,VWS V14.01,2013-11-28 03:37:00,
2013-11-27 21:38:00,21.6,3.0,29.50,South,172,5.4,5.4,44,0.00,,CLR,0.00,VWS V14.01,2013-11-28 03:38:00,
2013-11-27 21:40:00,21.6,3.0,29.50,South,171,5.4,5.8,44,0.00,,CLR,0.00,VWS V14.01,2013-11-28 03:40:00,
2013-11-27 21:41:00,21.6,3.0,29.50,South,172,4.9,6.3,44,0.00,,CLR,0.00,VWS V14.01,2013-11-28 03:41:00,
2013-11-27 21:42:00,21.7,3.2,29.50,South,171,5.8,8.1,44,0.00,,CLR,0.00,VWS V14.01,2013-11-28 03:42:00,
2013-11-27 21:44:00,21.7,3.2,29.50,South,169,7.6,8.1,44,0.00,,CLR,0.00,VWS V14.01,2013-11-28 03:44:00,
2013-11-27 21:45:00,21.7,3.2,29.50,SSE,166,6.3,7.6,44,0.00,,CLR,0.00,VWS V14.01,2013-11-28 03:45:00,
2013-11-27 21:46:00,21.9,3.4,29.50,South,169,6.3,7.6,44,0.00,,CLR,0.00,VWS V14.01,2013-11-28 03:46:00,
2013-11-27 21:47:00,21.7,3.2,29.50,SSE,165,8.1,8.3,44,0.00,,CLR,0.00,VWS V14.01,2013-11-28 03:47:00,
2013-11-27 21:49:00,21.7,3.2,29.50,SSE,163,5.4,8.1,44,0.00,,CLR,0.00,VWS V14.01,2013-11-28 03:49:00,
2013-11-27 21:50:00,21.7,3.2,29.50,South,171,6.3,8.1,44,0.00,,CLR,0.00,VWS V14.01,2013-11-28 03:50:00,
2013-11-27 21:51:00,21.7,3.2,29.50,SSE,155,6.3,8.1,44,0.00,,CLR,0.00,VWS V14.01,2013-11-28 03:51:00,
2013-11-27 21:52:00,21.7,3.2,29.50,SSE,162,4.0,7.6,44,0.00,,CLR,0.00,VWS V14.01,2013-11-28 03:52:00,
2013-11-27 21:54:00,21.7,3.2,29.50,SSE,164,5.4,5.4,44,0.00,,CLR,0.00,VWS V14.01,2013-11-28 03:54:00,
2013-11-27 21:55:00,21.7,3.2,29.47,SSE,164,6.3,6.3,44,0.00,,CLR,0.00,VWS V14.01,2013-11-28 03:55:00,
2013-11-27 21:56:00,21.7,3.2,29.47,South,172,5.4,5.8,44,0.00,,CLR,0.00,VWS V14.01,2013-11-28 03:56:00,
2013-11-27 21:57:00,21.7,3.2,29.47,SSE,166,5.8,5.8,44,0.00,,CLR,0.00,VWS V14.01,2013-11-28 03:57:00,
2013-11-27 21:58:00,21.7,3.2,29.47,SSE,163,8.1,8.1,44,0.00,,CLR,0.00,VWS V14.01,2013-11-28 03:58:00,
2013-11-27 22:00:00,21.7,3.2,29.47,South,175,7.2,7.2,44,0.00,,CLR,0.00,VWS V14.01,2013-11-28 04:00:00,
2013-11-27 22:01:00,21.7,3.2,29.47,SSE,158,5.4,5.8,44,0.00,,CLR,0.00,VWS V14.01,2013-11-28 04:01:00,
2013-11-27 22:02:00,21.7,3.2,29.47,South,179,4.0,6.3,44,0.00,,CLR,0.00,VWS V14.01,2013-11-28 04:02:00,
2013-11-27 22:03:00,21.7,3.2,29.47,South,174,9.2,9.2,44,0.00,,CLR,0.00,VWS V14.01,2013-11-28 04:03:00,
2013-11-27 22:04:00,21.7,3.2,29.47,South,174,6.3,7.6,44,0.00,,CLR,0.00,VWS V14.01,2013-11-28 04:04:00,
2013-11-27 22:06:00,21.7,3.2,29.47,SSE,161,7.6,10.1,44,0.00,,CLR,0.00,VWS V14.01,2013-11-28 04:06:00,
2013-11-27 22:07:00,21.7,3.2,29.47,South,169,8.1,8.1,44,0.00,,CLR,0.00,VWS V14.01,2013-11-28 04:07:00,
2013-11-27 22:08:00,21.9,3.4,29.47,South,179,8.1,8.1,44,0.00,,CLR,0.00,VWS V14.01,2013-11-28 04:08:00,
2013-11-27 22:11:00,21.9,3.4,29.44,SSW,193,8.3,10.1,44,0.00,,CLR,0.00,VWS V14.01,2013-11-28 04:11:00,
2013-11-27 22:12:00,21.9,3.4,29.44,SE,131,8.1,10.1,44,0.00,,CLR,0.00,VWS V14.01,2013-11-28 04:12:00,
2013-11-27 22:13:00,21.9,3.4,29.44,SSE,152,6.3,8.1,44,0.00,,CLR,0.00,VWS V14.01,2013-11-28 04:13:00,
2013-11-27 22:14:00,22.1,3.5,29.44,SSE,153,8.7,8.7,44,0.00,,CLR,0.00,VWS V14.01,2013-11-28 04:14:00,
2013-11-27 22:17:00,22.3,3.7,29.44,South,181,5.8,8.7,44,0.00,,CLR,0.00,VWS V14.01,2013-11-28 04:17:00,
2013-11-27 22:18:00,22.3,3.7,29.44,South,169,11.0,11.0,44,0.00,,CLR,0.00,VWS V14.01,2013-11-28 04:18:00,
2013-11-27 22:20:00,22.5,3.9,29.44,South,174,10.1,10.1,44,0.00,,CLR,0.00,VWS V14.01,2013-11-28 04:20:00,
2013-11-27 22:22:00,22.6,4.0,29.44,SSE,166,8.7,10.5,44,0.00,,CLR,0.00,VWS V14.01,2013-11-28 04:22:00,
2013-11-27 22:23:00,22.6,4.0,29.44,SSE,166,8.7,10.5,44,0.00,,CLR,0.00,VWS V14.01,2013-11-28 04:23:00,
2013-11-27 22:24:00,22.8,4.2,29.44,South,177,8.1,8.7,44,0.00,,CLR,0.00,VWS V14.01,2013-11-28 04:24:00,
2013-11-27 22:26:00,22.8,4.2,29.44,SE,134,8.7,10.1,44,0.00,,CLR,0.00,VWS V14.01,2013-11-28 04:26:00,
2013-11-27 22:27:00,22.8,4.2,29.44,South,178,6.3,8.7,44,0.00,,CLR,0.00,VWS V14.01,2013-11-28 04:27:00,
2013-11-27 22:28:00,22.8,4.2,29.44,SSE,148,3.1,8.1,44,0.00,,CLR,0.00,VWS V14.01,2013-11-28 04:28:00,
2013-11-27 22:31:00,22.8,4.2,29.44,SE,140,7.6,8.1,44,0.00,,CLR,0.00,VWS V14.01,2013-11-28 04:31:00,
2013-11-27 22:32:00,22.8,4.2,29.44,South,177,5.4,8.1,44,0.00,,CLR,0.00,VWS V14.01,2013-11-28 04:32:00,
2013-11-27 22:33:00,22.8,4.2,29.44,SSE,156,5.8,8.1,44,0.00,,CLR,0.00,VWS V14.01,2013-11-28 04:33:00,
2013-11-27 22:35:00,22.8,4.2,29.44,South,180,8.3,8.3,44,0.00,,CLR,0.00,VWS V14.01,2013-11-28 04:35:00,
2013-11-27 22:37:00,22.8,4.2,29.44,South,182,5.4,8.3,44,0.00,,CLR,0.00,VWS V14.01,2013-11-28 04:37:00,
2013-11-27 22:39:00,22.8,4.2,29.44,SSW,199,8.1,8.3,44,0.00,,CLR,0.00,VWS V14.01,2013-11-28 04:39:00,
2013-11-27 22:40:00,23.0,4.3,29.47,South,186,7.6,7.6,44,0.00,,CLR,0.00,VWS V14.01,2013-11-28 04:40:00,
2013-11-27 22:42:00,23.0,4.3,29.47,South,187,5.4,5.4,44,0.00,,CLR,0.00,VWS V14.01,2013-11-28 04:42:00,
2013-11-27 22:44:00,23.0,4.3,29.47,South,183,5.8,7.6,44,0.00,,CLR,0.00,VWS V14.01,2013-11-28 04:44:00,
2013-11-27 22:45:00,23.0,4.3,29.47,SSW,203,6.3,6.7,44,0.00,,CLR,0.00,VWS V14.01,2013-11-28 04:45:00,
2013-11-27 22:47:00,23.0,4.3,29.47,SSW,213,5.8,8.1,44,0.00,,CLR,0.00,VWS V14.01,2013-11-28 04:47:00,
2013-11-27 22:48:00,23.0,4.3,29.47,South,172,5.4,5.8,44,0.00,,CLR,0.00,VWS V14.01,2013-11-28 04:48:00,
2013-11-27 22:49:00,22.8,4.2,29.47,SSW,200,5.8,6.3,44,0.00,,CLR,0.00,VWS V14.01,2013-11-28 04:49:00,
2013-11-27 22:53:00,22.8,4.2,29.47,South,169,4.9,5.8,44,0.00,,CLR,0.00,VWS V14.01,2013-11-28 04:53:00,
2013-11-27 22:54:00,22.8,4.2,29.47,South,169,5.4,6.3,44,0.00,,CLR,0.00,VWS V14.01,2013-11-28 04:54:00,
2013-11-27 22:58:00,22.8,4.2,29.47,South,176,4.5,6.3,44,0.00,,CLR,0.00,VWS V14.01,2013-11-28 04:58:00,
2013-11-27 22:59:00,22.6,4.0,29.47,SSE,156,6.3,6.3,44,0.00,,CLR,0.00,VWS V14.01,2013-11-28 04:59:00,
2013-11-27 23:01:00,22.6,4.0,29.47,South,170,3.6,4.9,44,0.00,,CLR,0.00,VWS V14.01,2013-11-28 05:01:00,
2013-11-27 23:02:00,22.6,4.0,29.47,SSE,158,5.4,6.3,44,0.00,,CLR,0.00,VWS V14.01,2013-11-28 05:02:00,
2013-11-27 23:06:00,22.6,4.0,29.47,SSE,161,4.0,5.4,44,0.00,,CLR,0.00,VWS V14.01,2013-11-28 05:06:00,
2013-11-27 23:07:00,22.6,4.0,29.47,SSE,165,3.1,6.3,44,0.00,,CLR,0.00,VWS V14.01,2013-11-28 05:07:00,
2013-11-27 23:09:00,22.5,3.9,29.44,South,169,5.4,5.4,44,0.00,,CLR,0.00,VWS V14.01,2013-11-28 05:09:00,
2013-11-27 23:12:00,22.5,3.9,29.44,SSE,166,5.8,5.8,44,0.00,,CLR,0.00,VWS V14.01,2013-11-28 05:12:00,
2013-11-27 23:13:00,22.5,3.9,29.44,South,174,5.4,7.2,44,0.00,,CLR,0.00,VWS V14.01,2013-11-28 05:13:00,
2013-11-27 23:14:00,22.5,3.9,29.44,South,174,5.8,7.2,44,0.00,,CLR,0.00,VWS V14.01,2013-11-28 05:14:00,
2013-11-27 23:17:00,22.5,3.9,29.44,SSE,167,4.9,8.3,44,0.00,,CLR,0.00,VWS V14.01,2013-11-28 05:17:00,
2013-11-27 23:18:00,22.5,3.9,29.44,SSE,151,7.6,8.3,44,0.00,,CLR,0.00,VWS V14.01,2013-11-28 05:18:00,
2013-11-27 23:19:00,22.5,3.9,29.44,SSE,161,8.1,8.1,44,0.00,,CLR,0.00,VWS V14.01,2013-11-28 05:19:00,
2013-11-27 23:21:00,22.5,3.9,29.44,SSE,165,4.0,6.3,44,0.00,,CLR,0.00,VWS V14.01,2013-11-28 05:21:00,
2013-11-27 23:23:00,22.5,3.9,29.44,SSE,165,4.0,5.4,44,0.00,,CLR,0.00,VWS V14.01,2013-11-28 05:23:00,
2013-11-27 23:24:00,22.5,3.9,29.44,SSE,168,6.3,6.3,44,0.00,,CLR,0.00,VWS V14.01,2013-11-28 05:24:00,
2013-11-27 23:25:00,22.3,3.7,29.47,South,175,6.3,6.3,44,0.00,,CLR,0.00,VWS V14.01,2013-11-28 05:25:00,
2013-11-27 23:26:00,22.3,3.7,29.47,South,176,5.4,6.3,44,0.00,,CLR,0.00,VWS V14.01,2013-11-28 05:26:00,
2013-11-27 23:28:00,22.3,3.7,29.47,SSE,151,4.5,5.4,44,0.00,,CLR,0.00,VWS V14.01,2013-11-28 05:28:00,
2013-11-27 23:29:00,22.3,3.7,29.47,SSE,163,4.0,4.5,44,0.00,,CLR,0.00,VWS V14.01,2013-11-28 05:29:00,
2013-11-27 23:30:00,22.3,3.7,29.47,South,169,5.4,5.4,44,0.00,,CLR,0.00,VWS V14.01,2013-11-28 05:30:00,
2013-11-27 23:31:00,22.3,3.7,29.47,SSE,167,4.5,7.2,44,0.00,,CLR,0.00,VWS V14.01,2013-11-28 05:31:00,
2013-11-27 23:34:00,22.3,3.7,29.47,SSE,166,4.9,5.4,44,0.00,,CLR,0.00,VWS V14.01,2013-11-28 05:34:00,
2013-11-27 23:35:00,22.3,3.7,29.47,SSE,160,4.0,5.4,44,0.00,,CLR,0.00,VWS V14.01,2013-11-28 05:35:00,
2013-11-27 23:36:00,22.3,3.7,29.47,South,181,4.0,4.9,44,0.00,,CLR,0.00,VWS V14.01,2013-11-28 05:36:00,
2013-11-27 23:40:00,22.1,3.5,29.50,South,182,4.9,4.9,44,0.00,,CLR,0.00,VWS V14.01,2013-11-28 05:40:00,
2013-11-27 23:41:00,22.1,3.5,29.50,South,186,4.0,5.8,44,0.00,,CLR,0.00,VWS V14.01,2013-11-28 05:41:00,
2013-11-27 23:42:00,22.1,3.5,29.50,South,187,4.9,5.4,44,0.00,,CLR,0.00,VWS V14.01,2013-11-28 05:42:00,
2013-11-27 23:43:00,22.1,3.5,29.50,South,187,3.1,3.6,44,0.00,,CLR,0.00,VWS V14.01,2013-11-28 05:43:00,
2013-11-27 23:45:00,22.1,3.5,29.50,South,185,4.0,4.0,44,0.00,,CLR,0.00,VWS V14.01,2013-11-28 05:45:00,
2013-11-27 23:46:00,21.9,3.4,29.50,South,177,4.0,4.9,44,0.00,,CLR,0.00,VWS V14.01,2013-11-28 05:46:00,
2013-11-27 23:48:00,21.9,3.4,29.50,South,177,5.4,6.3,44,0.00,,CLR,0.00,VWS V14.01,2013-11-28 05:48:00,
2013-11-27 23:49:00,21.9,3.4,29.50,South,177,5.4,6.3,44,0.00,,CLR,0.00,VWS V14.01,2013-11-28 05:49:00,
2013-11-27 23:53:00,21.9,3.4,29.50,South,174,3.1,4.0,44,0.00,,CLR,0.00,VWS V14.01,2013-11-28 05:53:00,
2013-11-27 23:54:00,21.9,3.4,29.47,SSE,167,3.1,4.9,44,0.00,,CLR,0.00,VWS V14.01,2013-11-28 05:54:00,
2013-11-27 23:55:00,21.9,3.4,29.47,South,169,4.9,4.9,44,0.00,,CLR,0.00,VWS V14.01,2013-11-28 05:55:00,
2013-11-27 23:56:00,21.9,3.4,29.47,SSE,161,5.4,5.4,44,0.00,,CLR,0.00,VWS V14.01,2013-11-28 05:56:00,
2013-11-27 23:58:00,21.9,3.4,29.47,SSE,156,5.4,5.4,44,0.00,,CLR,0.00,VWS V14.01,2013-11-28 05:58:00,
2013-11-27 23:59:00,21.9,3.4,29.47,SSE,167,4.9,6.3,44,0.00,,CLR,0.00,VWS V14.01,2013-11-28 05:59:00,